<?xml version="1.0" encoding="UTF-8"?>
<gpx creator="Patrick Hooper" version="1.1" xmlns="http://www.topografix.com/GPX/1/1" xmlns:xsi="http://www.w3.org/2001/XMLSchema-instance" xsi:schemaLocation="http://www.topografix.com/GPX/1/1 http://www.topografix.com/GPX/1/1/gpx.xsd http://www.garmin.com/xmlschemas/GpxExtensions/v3 http://www.garmin.com/xmlschemas/GpxExtensionsv3.xsd http://www.garmin.com/xmlschemas/TrackPointExtension/v1 http://www.garmin.com/xmlschemas/TrackPointExtensionv1.xsd">
  <metadata>
    <name>Activity</name>
  </metadata>
  <trk>
    <name>a</name>
    <trkseg>
      <trkpt lat="32.570844" lon="35.1837735">
        <ele>146.39999389648438</ele>
        <time>2026-06-10T14:17:11.281Z</time>
      </trkpt>
      <trkpt lat="32.5706473" lon="35.1836157">
        <ele>146.1999969482422</ele>
        <time>2026-06-10T14:17:12.281Z</time>
      </trkpt>
      <trkpt lat="32.5707377" lon="35.1833436">
        <ele>146.25276630204021</ele>
        <time>2026-06-10T14:17:13.281Z</time>
      </trkpt>
      <trkpt lat="32.5707605" lon="35.1830689">
        <ele>146.1999969482422</ele>
        <time>2026-06-10T14:17:14.281Z</time>
      </trkpt>
      <trkpt lat="32.5709736" lon="35.1829504">
        <ele>146.91204217441063</ele>
        <time>2026-06-10T14:17:15.281Z</time>
      </trkpt>
      <trkpt lat="32.5711451" lon="35.1831317">
        <ele>146.14107771616628</ele>
        <time>2026-06-10T14:17:16.281Z</time>
      </trkpt>
      <trkpt lat="32.5713294" lon="35.1833169">
        <ele>145.43567922546353</ele>
        <time>2026-06-10T14:17:17.281Z</time>
      </trkpt>
      <trkpt lat="32.5715087" lon="35.1834965">
        <ele>145.30554775721885</ele>
        <time>2026-06-10T14:17:18.281Z</time>
      </trkpt>
      <trkpt lat="32.5716471" lon="35.1837273">
        <ele>144.64366157745275</ele>
        <time>2026-06-10T14:17:19.281Z</time>
      </trkpt>
      <trkpt lat="32.5718102" lon="35.1839153">
        <ele>143.52271007385954</ele>
        <time>2026-06-10T14:17:20.281Z</time>
      </trkpt>
      <trkpt lat="32.5719179" lon="35.1841527">
        <ele>142.27577447594618</ele>
        <time>2026-06-10T14:17:21.281Z</time>
      </trkpt>
      <trkpt lat="32.5721117" lon="35.1843031">
        <ele>139.70778946701023</ele>
        <time>2026-06-10T14:17:22.281Z</time>
      </trkpt>
      <trkpt lat="32.5722886" lon="35.1844935">
        <ele>137.57056782052143</ele>
        <time>2026-06-10T14:17:23.281Z</time>
      </trkpt>
      <trkpt lat="32.572483" lon="35.1846484">
        <ele>136.91338220521544</ele>
        <time>2026-06-10T14:17:24.281Z</time>
      </trkpt>
      <trkpt lat="32.5726794" lon="35.1847923">
        <ele>138.2804362683459</ele>
        <time>2026-06-10T14:17:25.281Z</time>
      </trkpt>
      <trkpt lat="32.5728215" lon="35.1850116">
        <ele>142.03539097740386</ele>
        <time>2026-06-10T14:17:26.281Z</time>
      </trkpt>
      <trkpt lat="32.5730566" lon="35.1851034">
        <ele>143.30717807521862</ele>
        <time>2026-06-10T14:17:27.281Z</time>
      </trkpt>
      <trkpt lat="32.5732286" lon="35.1849033">
        <ele>145.41493436406367</ele>
        <time>2026-06-10T14:17:28.281Z</time>
      </trkpt>
      <trkpt lat="32.5733242" lon="35.1846463">
        <ele>145.40918659552494</ele>
        <time>2026-06-10T14:17:29.281Z</time>
      </trkpt>
      <trkpt lat="32.5734753" lon="35.184428">
        <ele>145.92411590832347</ele>
        <time>2026-06-10T14:17:30.281Z</time>
      </trkpt>
      <trkpt lat="32.5735915" lon="35.1841996">
        <ele>146.69669060331498</ele>
        <time>2026-06-10T14:17:31.281Z</time>
      </trkpt>
      <trkpt lat="32.5737317" lon="35.1839503">
        <ele>147.71810887925812</ele>
        <time>2026-06-10T14:17:32.281Z</time>
      </trkpt>
      <trkpt lat="32.5739088" lon="35.1837629">
        <ele>149.39657157658075</ele>
        <time>2026-06-10T14:17:33.281Z</time>
      </trkpt>
      <trkpt lat="32.5741285" lon="35.1836701">
        <ele>150.2742235986157</ele>
        <time>2026-06-10T14:17:34.281Z</time>
      </trkpt>
      <trkpt lat="32.5742879" lon="35.1834589">
        <ele>151.5349728660231</ele>
        <time>2026-06-10T14:17:35.281Z</time>
      </trkpt>
      <trkpt lat="32.5743284" lon="35.1831937">
        <ele>152.60541170476037</ele>
        <time>2026-06-10T14:17:36.281Z</time>
      </trkpt>
      <trkpt lat="32.5743322" lon="35.1829005">
        <ele>152.84974750031532</ele>
        <time>2026-06-10T14:17:37.281Z</time>
      </trkpt>
      <trkpt lat="32.5744131" lon="35.1826218">
        <ele>154.94296210136775</ele>
        <time>2026-06-10T14:17:38.281Z</time>
      </trkpt>
      <trkpt lat="32.5745467" lon="35.1823784">
        <ele>156.60471016291666</ele>
        <time>2026-06-10T14:17:39.281Z</time>
      </trkpt>
      <trkpt lat="32.5746418" lon="35.182113">
        <ele>158.05909303334417</ele>
        <time>2026-06-10T14:17:40.281Z</time>
      </trkpt>
      <trkpt lat="32.5747193" lon="35.1818562">
        <ele>158.09846015038278</ele>
        <time>2026-06-10T14:17:41.281Z</time>
      </trkpt>
      <trkpt lat="32.5748025" lon="35.1815875">
        <ele>158.35574147631866</ele>
        <time>2026-06-10T14:17:42.281Z</time>
      </trkpt>
      <trkpt lat="32.5748984" lon="35.1813147">
        <ele>158.52943847397182</ele>
        <time>2026-06-10T14:17:43.281Z</time>
      </trkpt>
      <trkpt lat="32.5749688" lon="35.1810332">
        <ele>158.01765416083603</ele>
        <time>2026-06-10T14:17:44.281Z</time>
      </trkpt>
      <trkpt lat="32.5750102" lon="35.1807353">
        <ele>158.12895003161952</ele>
        <time>2026-06-10T14:17:45.281Z</time>
      </trkpt>
      <trkpt lat="32.5750555" lon="35.1804467">
        <ele>157.27138701424605</ele>
        <time>2026-06-10T14:17:46.281Z</time>
      </trkpt>
      <trkpt lat="32.5751436" lon="35.1801872">
        <ele>156.4724755757189</ele>
        <time>2026-06-10T14:17:47.281Z</time>
      </trkpt>
      <trkpt lat="32.5752235" lon="35.1799191">
        <ele>157.9612731628469</ele>
        <time>2026-06-10T14:17:48.281Z</time>
      </trkpt>
      <trkpt lat="32.5753397" lon="35.1796683">
        <ele>158.7913099756702</ele>
        <time>2026-06-10T14:17:49.281Z</time>
      </trkpt>
      <trkpt lat="32.5753814" lon="35.1793787">
        <ele>157.66619480881252</ele>
        <time>2026-06-10T14:17:50.281Z</time>
      </trkpt>
      <trkpt lat="32.5752919" lon="35.1791003">
        <ele>157.92311399219437</ele>
        <time>2026-06-10T14:17:51.281Z</time>
      </trkpt>
      <trkpt lat="32.5751755" lon="35.1788623">
        <ele>158.85140321194058</ele>
        <time>2026-06-10T14:17:52.281Z</time>
      </trkpt>
      <trkpt lat="32.5751147" lon="35.178591">
        <ele>160.3124219495896</ele>
        <time>2026-06-10T14:17:53.281Z</time>
      </trkpt>
      <trkpt lat="32.5750022" lon="35.1783595">
        <ele>159.9969226413026</ele>
        <time>2026-06-10T14:17:54.281Z</time>
      </trkpt>
      <trkpt lat="32.5750217" lon="35.1780853">
        <ele>158.69806269616768</ele>
        <time>2026-06-10T14:17:55.281Z</time>
      </trkpt>
      <trkpt lat="32.5749263" lon="35.17784">
        <ele>159.05240783055098</ele>
        <time>2026-06-10T14:17:56.281Z</time>
      </trkpt>
      <trkpt lat="32.5746966" lon="35.1778456">
        <ele>160.46993692083913</ele>
        <time>2026-06-10T14:17:57.281Z</time>
      </trkpt>
      <trkpt lat="32.5745149" lon="35.1776832">
        <ele>162.2090143773408</ele>
        <time>2026-06-10T14:17:58.281Z</time>
      </trkpt>
      <trkpt lat="32.5743354" lon="35.1775095">
        <ele>162.77828833951205</ele>
        <time>2026-06-10T14:17:59.281Z</time>
      </trkpt>
      <trkpt lat="32.5740732" lon="35.1775212">
        <ele>162.34184147423275</ele>
        <time>2026-06-10T14:18:00.281Z</time>
      </trkpt>
      <trkpt lat="32.5738306" lon="35.1775196">
        <ele>161.7462330461776</ele>
        <time>2026-06-10T14:18:01.281Z</time>
      </trkpt>
      <trkpt lat="32.5735925" lon="35.1775125">
        <ele>160.82493472099102</ele>
        <time>2026-06-10T14:18:02.281Z</time>
      </trkpt>
      <trkpt lat="32.5733425" lon="35.177462">
        <ele>160.43787058319847</ele>
        <time>2026-06-10T14:18:03.281Z</time>
      </trkpt>
      <trkpt lat="32.5731268" lon="35.1773247">
        <ele>160.43590771862844</ele>
        <time>2026-06-10T14:18:04.281Z</time>
      </trkpt>
      <trkpt lat="32.5730024" lon="35.1770926">
        <ele>161.46274226316928</ele>
        <time>2026-06-10T14:18:05.281Z</time>
      </trkpt>
      <trkpt lat="32.5728411" lon="35.1768453">
        <ele>161.97707246959567</ele>
        <time>2026-06-10T14:18:06.281Z</time>
      </trkpt>
      <trkpt lat="32.5727079" lon="35.176606">
        <ele>162.9460155824728</ele>
        <time>2026-06-10T14:18:07.281Z</time>
      </trkpt>
      <trkpt lat="32.572531" lon="35.1763991">
        <ele>163.30258936854275</ele>
        <time>2026-06-10T14:18:08.281Z</time>
      </trkpt>
      <trkpt lat="32.572343" lon="35.176238">
        <ele>163.5295872130307</ele>
        <time>2026-06-10T14:18:09.281Z</time>
      </trkpt>
      <trkpt lat="32.5721709" lon="35.176062">
        <ele>164.3206161137495</ele>
        <time>2026-06-10T14:18:10.281Z</time>
      </trkpt>
      <trkpt lat="32.5720076" lon="35.175851">
        <ele>165.05269895063938</ele>
        <time>2026-06-10T14:18:11.281Z</time>
      </trkpt>
      <trkpt lat="32.5718834" lon="35.17559">
        <ele>165.80119297829924</ele>
        <time>2026-06-10T14:18:12.281Z</time>
      </trkpt>
      <trkpt lat="32.5718322" lon="35.1752995">
        <ele>165.9892635128343</ele>
        <time>2026-06-10T14:18:13.281Z</time>
      </trkpt>
      <trkpt lat="32.5718309" lon="35.175014">
        <ele>165.69500139692326</ele>
        <time>2026-06-10T14:18:14.281Z</time>
      </trkpt>
      <trkpt lat="32.5718094" lon="35.1747151">
        <ele>165.5454258849387</ele>
        <time>2026-06-10T14:18:15.281Z</time>
      </trkpt>
      <trkpt lat="32.5717614" lon="35.174446">
        <ele>165.77317345257825</ele>
        <time>2026-06-10T14:18:16.281Z</time>
      </trkpt>
      <trkpt lat="32.5717855" lon="35.1741596">
        <ele>166.9670195869937</ele>
        <time>2026-06-10T14:18:17.281Z</time>
      </trkpt>
      <trkpt lat="32.5717984" lon="35.1738872">
        <ele>169.09697137942715</ele>
        <time>2026-06-10T14:18:18.281Z</time>
      </trkpt>
      <trkpt lat="32.571726" lon="35.1736128">
        <ele>169.07580248198082</ele>
        <time>2026-06-10T14:18:19.281Z</time>
      </trkpt>
      <trkpt lat="32.5716981" lon="35.1733278">
        <ele>169.81943954743727</ele>
        <time>2026-06-10T14:18:20.281Z</time>
      </trkpt>
      <trkpt lat="32.5716603" lon="35.1730604">
        <ele>170.4067704976553</ele>
        <time>2026-06-10T14:18:21.281Z</time>
      </trkpt>
      <trkpt lat="32.5715893" lon="35.1727868">
        <ele>171.04961653453185</ele>
        <time>2026-06-10T14:18:22.281Z</time>
      </trkpt>
      <trkpt lat="32.5714059" lon="35.1725901">
        <ele>171.13368259443433</ele>
        <time>2026-06-10T14:18:23.281Z</time>
      </trkpt>
      <trkpt lat="32.5713063" lon="35.1723384">
        <ele>171.33079039748233</ele>
        <time>2026-06-10T14:18:24.281Z</time>
      </trkpt>
      <trkpt lat="32.5712042" lon="35.1720836">
        <ele>173.04935656966515</ele>
        <time>2026-06-10T14:18:25.281Z</time>
      </trkpt>
      <trkpt lat="32.5711018" lon="35.1718378">
        <ele>174.06307173396135</ele>
        <time>2026-06-10T14:18:26.281Z</time>
      </trkpt>
      <trkpt lat="32.5709805" lon="35.1715669">
        <ele>174.94247617362163</ele>
        <time>2026-06-10T14:18:27.281Z</time>
      </trkpt>
      <trkpt lat="32.5708518" lon="35.1713201">
        <ele>174.64303181430174</ele>
        <time>2026-06-10T14:18:28.281Z</time>
      </trkpt>
      <trkpt lat="32.5707577" lon="35.1710376">
        <ele>174.82544596405978</ele>
        <time>2026-06-10T14:18:29.281Z</time>
      </trkpt>
      <trkpt lat="32.5707336" lon="35.1707511">
        <ele>177.58316307576487</ele>
        <time>2026-06-10T14:18:30.281Z</time>
      </trkpt>
      <trkpt lat="32.5706353" lon="35.1704916">
        <ele>178.55542192494838</ele>
        <time>2026-06-10T14:18:31.281Z</time>
      </trkpt>
      <trkpt lat="32.5705339" lon="35.1702151">
        <ele>178.54481804839463</ele>
        <time>2026-06-10T14:18:32.281Z</time>
      </trkpt>
      <trkpt lat="32.5704747" lon="35.1699574">
        <ele>178.5605174765688</ele>
        <time>2026-06-10T14:18:33.281Z</time>
      </trkpt>
      <trkpt lat="32.5704271" lon="35.1696899">
        <ele>178.92215341699986</ele>
        <time>2026-06-10T14:18:34.281Z</time>
      </trkpt>
      <trkpt lat="32.5703791" lon="35.1693993">
        <ele>179.4142589770319</ele>
        <time>2026-06-10T14:18:35.281Z</time>
      </trkpt>
      <trkpt lat="32.5703558" lon="35.1691193">
        <ele>180.28112049906775</ele>
        <time>2026-06-10T14:18:36.281Z</time>
      </trkpt>
      <trkpt lat="32.5703367" lon="35.1688211">
        <ele>180.55896524186306</ele>
        <time>2026-06-10T14:18:37.281Z</time>
      </trkpt>
      <trkpt lat="32.5703142" lon="35.1685217">
        <ele>181.31499502799073</ele>
        <time>2026-06-10T14:18:38.281Z</time>
      </trkpt>
      <trkpt lat="32.5702873" lon="35.1682317">
        <ele>181.8147531893679</ele>
        <time>2026-06-10T14:18:39.281Z</time>
      </trkpt>
      <trkpt lat="32.5702713" lon="35.1679262">
        <ele>182.32307244821163</ele>
        <time>2026-06-10T14:18:40.281Z</time>
      </trkpt>
      <trkpt lat="32.5702479" lon="35.1676446">
        <ele>183.6422289055541</ele>
        <time>2026-06-10T14:18:41.281Z</time>
      </trkpt>
      <trkpt lat="32.570209" lon="35.1673657">
        <ele>184.5234139861511</ele>
        <time>2026-06-10T14:18:42.281Z</time>
      </trkpt>
      <trkpt lat="32.5701242" lon="35.1670931">
        <ele>184.97921001310317</ele>
        <time>2026-06-10T14:18:43.281Z</time>
      </trkpt>
      <trkpt lat="32.5700211" lon="35.1667795">
        <ele>186.15102945078377</ele>
        <time>2026-06-10T14:18:44.281Z</time>
      </trkpt>
      <trkpt lat="32.5699358" lon="35.1665066">
        <ele>186.33698125305827</ele>
        <time>2026-06-10T14:18:45.281Z</time>
      </trkpt>
      <trkpt lat="32.5698444" lon="35.1662309">
        <ele>186.9750655499671</ele>
        <time>2026-06-10T14:18:46.281Z</time>
      </trkpt>
      <trkpt lat="32.5697438" lon="35.1659578">
        <ele>187.4906862064496</ele>
        <time>2026-06-10T14:18:47.281Z</time>
      </trkpt>
      <trkpt lat="32.5696667" lon="35.1656806">
        <ele>188.6330877557787</ele>
        <time>2026-06-10T14:18:48.281Z</time>
      </trkpt>
      <trkpt lat="32.5696331" lon="35.1654043">
        <ele>190.86964907314385</ele>
        <time>2026-06-10T14:18:49.281Z</time>
      </trkpt>
      <trkpt lat="32.5695481" lon="35.165138">
        <ele>191.9123105004381</ele>
        <time>2026-06-10T14:18:50.281Z</time>
      </trkpt>
      <trkpt lat="32.569421" lon="35.1648848">
        <ele>192.1969276410635</ele>
        <time>2026-06-10T14:18:51.281Z</time>
      </trkpt>
      <trkpt lat="32.5692867" lon="35.1646646">
        <ele>193.16247757704804</ele>
        <time>2026-06-10T14:18:52.281Z</time>
      </trkpt>
      <trkpt lat="32.5691386" lon="35.164448">
        <ele>193.59815772455414</ele>
        <time>2026-06-10T14:18:53.281Z</time>
      </trkpt>
      <trkpt lat="32.5689703" lon="35.1642262">
        <ele>193.77180543833936</ele>
        <time>2026-06-10T14:18:54.281Z</time>
      </trkpt>
      <trkpt lat="32.5688054" lon="35.1639973">
        <ele>193.70242204970677</ele>
        <time>2026-06-10T14:18:55.281Z</time>
      </trkpt>
      <trkpt lat="32.5686293" lon="35.1637912">
        <ele>193.82330470864423</ele>
        <time>2026-06-10T14:18:56.281Z</time>
      </trkpt>
      <trkpt lat="32.5684655" lon="35.1635432">
        <ele>193.86046333873873</ele>
        <time>2026-06-10T14:18:57.281Z</time>
      </trkpt>
      <trkpt lat="32.568441" lon="35.1632666">
        <ele>194.74068939308904</ele>
        <time>2026-06-10T14:18:58.281Z</time>
      </trkpt>
      <trkpt lat="32.5684244" lon="35.1629747">
        <ele>195.19256309789625</ele>
        <time>2026-06-10T14:18:59.281Z</time>
      </trkpt>
      <trkpt lat="32.5682228" lon="35.1628166">
        <ele>195.18410211512506</ele>
        <time>2026-06-10T14:19:00.281Z</time>
      </trkpt>
      <trkpt lat="32.5680145" lon="35.1626656">
        <ele>194.60821873736614</ele>
        <time>2026-06-10T14:19:01.281Z</time>
      </trkpt>
      <trkpt lat="32.5678431" lon="35.1624769">
        <ele>193.49167794596585</ele>
        <time>2026-06-10T14:19:02.281Z</time>
      </trkpt>
      <trkpt lat="32.5676903" lon="35.1622651">
        <ele>192.86679211067056</ele>
        <time>2026-06-10T14:19:03.281Z</time>
      </trkpt>
      <trkpt lat="32.56755" lon="35.1620466">
        <ele>192.84559286509295</ele>
        <time>2026-06-10T14:19:04.281Z</time>
      </trkpt>
      <trkpt lat="32.5674145" lon="35.1617862">
        <ele>192.87952798852322</ele>
        <time>2026-06-10T14:19:05.281Z</time>
      </trkpt>
      <trkpt lat="32.567361" lon="35.1615105">
        <ele>193.5152622387875</ele>
        <time>2026-06-10T14:19:06.281Z</time>
      </trkpt>
      <trkpt lat="32.5673255" lon="35.1612222">
        <ele>194.06207932544658</ele>
        <time>2026-06-10T14:19:07.281Z</time>
      </trkpt>
      <trkpt lat="32.5672975" lon="35.1609405">
        <ele>194.23613284647126</ele>
        <time>2026-06-10T14:19:08.281Z</time>
      </trkpt>
      <trkpt lat="32.5672904" lon="35.1606152">
        <ele>194.11279724036942</ele>
        <time>2026-06-10T14:19:09.281Z</time>
      </trkpt>
      <trkpt lat="32.5672872" lon="35.1603312">
        <ele>194.31072445682756</ele>
        <time>2026-06-10T14:19:10.281Z</time>
      </trkpt>
      <trkpt lat="32.5673112" lon="35.1600644">
        <ele>195.1139041599855</ele>
        <time>2026-06-10T14:19:11.281Z</time>
      </trkpt>
      <trkpt lat="32.5673752" lon="35.1598026">
        <ele>196.11632262581173</ele>
        <time>2026-06-10T14:19:12.281Z</time>
      </trkpt>
      <trkpt lat="32.5674128" lon="35.1595067">
        <ele>197.1378845499244</ele>
        <time>2026-06-10T14:19:13.281Z</time>
      </trkpt>
      <trkpt lat="32.5674503" lon="35.1592388">
        <ele>198.92933818875372</ele>
        <time>2026-06-10T14:19:14.281Z</time>
      </trkpt>
      <trkpt lat="32.5674442" lon="35.1589371">
        <ele>199.3254389480048</ele>
        <time>2026-06-10T14:19:15.281Z</time>
      </trkpt>
      <trkpt lat="32.5674233" lon="35.1586461">
        <ele>199.69487421957604</ele>
        <time>2026-06-10T14:19:16.281Z</time>
      </trkpt>
      <trkpt lat="32.5673915" lon="35.1583522">
        <ele>200.47173324369322</ele>
        <time>2026-06-10T14:19:17.281Z</time>
      </trkpt>
      <trkpt lat="32.5673106" lon="35.1580975">
        <ele>200.69259298643254</ele>
        <time>2026-06-10T14:19:18.281Z</time>
      </trkpt>
      <trkpt lat="32.5672046" lon="35.1578313">
        <ele>200.47251666968765</ele>
        <time>2026-06-10T14:19:19.281Z</time>
      </trkpt>
      <trkpt lat="32.5671431" lon="35.1575387">
        <ele>201.1484038368034</ele>
        <time>2026-06-10T14:19:20.281Z</time>
      </trkpt>
      <trkpt lat="32.5670321" lon="35.1572968">
        <ele>203.14325821565137</ele>
        <time>2026-06-10T14:19:21.281Z</time>
      </trkpt>
      <trkpt lat="32.5669282" lon="35.157057">
        <ele>205.11239286720078</ele>
        <time>2026-06-10T14:19:22.281Z</time>
      </trkpt>
      <trkpt lat="32.5667843" lon="35.1568211">
        <ele>205.79365927978378</ele>
        <time>2026-06-10T14:19:23.281Z</time>
      </trkpt>
      <trkpt lat="32.566621" lon="35.156597">
        <ele>205.91277253351453</ele>
        <time>2026-06-10T14:19:24.281Z</time>
      </trkpt>
      <trkpt lat="32.5664369" lon="35.1564383">
        <ele>206.1641377419815</ele>
        <time>2026-06-10T14:19:25.281Z</time>
      </trkpt>
      <trkpt lat="32.5662195" lon="35.1562729">
        <ele>205.7915629419557</ele>
        <time>2026-06-10T14:19:26.281Z</time>
      </trkpt>
      <trkpt lat="32.5660151" lon="35.1560755">
        <ele>205.63510868076602</ele>
        <time>2026-06-10T14:19:27.281Z</time>
      </trkpt>
      <trkpt lat="32.5658428" lon="35.1558472">
        <ele>207.63191072800632</ele>
        <time>2026-06-10T14:19:28.281Z</time>
      </trkpt>
      <trkpt lat="32.5656855" lon="35.1556255">
        <ele>209.26831567465229</ele>
        <time>2026-06-10T14:19:29.281Z</time>
      </trkpt>
      <trkpt lat="32.5654645" lon="35.1554852">
        <ele>210.10125006835437</ele>
        <time>2026-06-10T14:19:30.281Z</time>
      </trkpt>
      <trkpt lat="32.565249" lon="35.1553056">
        <ele>210.67791598476666</ele>
        <time>2026-06-10T14:19:31.281Z</time>
      </trkpt>
      <trkpt lat="32.5650638" lon="35.155125">
        <ele>211.55902811811998</ele>
        <time>2026-06-10T14:19:32.281Z</time>
      </trkpt>
      <trkpt lat="32.5648939" lon="35.1548879">
        <ele>212.85113475214436</ele>
        <time>2026-06-10T14:19:33.281Z</time>
      </trkpt>
      <trkpt lat="32.5647578" lon="35.1546369">
        <ele>211.93052914646327</ele>
        <time>2026-06-10T14:19:34.281Z</time>
      </trkpt>
      <trkpt lat="32.5646593" lon="35.1543642">
        <ele>211.4451512525594</ele>
        <time>2026-06-10T14:19:35.281Z</time>
      </trkpt>
      <trkpt lat="32.5645982" lon="35.1540824">
        <ele>212.43190314283942</ele>
        <time>2026-06-10T14:19:36.281Z</time>
      </trkpt>
      <trkpt lat="32.5645383" lon="35.1538047">
        <ele>213.02171716356537</ele>
        <time>2026-06-10T14:19:37.281Z</time>
      </trkpt>
      <trkpt lat="32.5644534" lon="35.1535158">
        <ele>214.24141844591267</ele>
        <time>2026-06-10T14:19:38.281Z</time>
      </trkpt>
      <trkpt lat="32.5644126" lon="35.1532273">
        <ele>215.66321545243133</ele>
        <time>2026-06-10T14:19:39.281Z</time>
      </trkpt>
      <trkpt lat="32.564365" lon="35.1529487">
        <ele>216.36709225763033</ele>
        <time>2026-06-10T14:19:40.281Z</time>
      </trkpt>
      <trkpt lat="32.5643096" lon="35.152659">
        <ele>216.92616755034274</ele>
        <time>2026-06-10T14:19:41.281Z</time>
      </trkpt>
      <trkpt lat="32.5642777" lon="35.1523684">
        <ele>218.1152477783987</ele>
        <time>2026-06-10T14:19:42.281Z</time>
      </trkpt>
      <trkpt lat="32.5642449" lon="35.1520723">
        <ele>218.86914046667687</ele>
        <time>2026-06-10T14:19:43.281Z</time>
      </trkpt>
      <trkpt lat="32.5642429" lon="35.1517943">
        <ele>219.4913315300208</ele>
        <time>2026-06-10T14:19:44.281Z</time>
      </trkpt>
      <trkpt lat="32.5642926" lon="35.1515273">
        <ele>220.51136909390155</ele>
        <time>2026-06-10T14:19:45.281Z</time>
      </trkpt>
      <trkpt lat="32.564349" lon="35.1512492">
        <ele>221.72266452048743</ele>
        <time>2026-06-10T14:19:46.281Z</time>
      </trkpt>
      <trkpt lat="32.5643828" lon="35.1509487">
        <ele>222.41445361337176</ele>
        <time>2026-06-10T14:19:47.281Z</time>
      </trkpt>
      <trkpt lat="32.564415" lon="35.1506513">
        <ele>223.73888329363155</ele>
        <time>2026-06-10T14:19:48.281Z</time>
      </trkpt>
      <trkpt lat="32.5644852" lon="35.1503636">
        <ele>225.06409870791032</ele>
        <time>2026-06-10T14:19:49.281Z</time>
      </trkpt>
      <trkpt lat="32.5646377" lon="35.1501196">
        <ele>226.80833481810726</ele>
        <time>2026-06-10T14:19:50.281Z</time>
      </trkpt>
      <trkpt lat="32.564869" lon="35.1499945">
        <ele>228.63629387700632</ele>
        <time>2026-06-10T14:19:51.281Z</time>
      </trkpt>
      <trkpt lat="32.5651131" lon="35.1498946">
        <ele>229.7473927356412</ele>
        <time>2026-06-10T14:19:52.281Z</time>
      </trkpt>
      <trkpt lat="32.5653484" lon="35.149799">
        <ele>230.87117055435695</ele>
        <time>2026-06-10T14:19:53.281Z</time>
      </trkpt>
      <trkpt lat="32.5655752" lon="35.1497105">
        <ele>232.39765638013958</ele>
        <time>2026-06-10T14:19:54.281Z</time>
      </trkpt>
      <trkpt lat="32.5658065" lon="35.1496117">
        <ele>232.53529705595932</ele>
        <time>2026-06-10T14:19:55.281Z</time>
      </trkpt>
      <trkpt lat="32.565611" lon="35.1493934">
        <ele>234.3398525731087</ele>
        <time>2026-06-10T14:19:56.281Z</time>
      </trkpt>
      <trkpt lat="32.5653739" lon="35.149347">
        <ele>234.2203131291419</ele>
        <time>2026-06-10T14:19:57.281Z</time>
      </trkpt>
      <trkpt lat="32.5651535" lon="35.1494225">
        <ele>233.77928288832473</ele>
        <time>2026-06-10T14:19:58.281Z</time>
      </trkpt>
      <trkpt lat="32.5649265" lon="35.1494691">
        <ele>232.574482264582</ele>
        <time>2026-06-10T14:19:59.281Z</time>
      </trkpt>
      <trkpt lat="32.56468" lon="35.1495322">
        <ele>231.35285437867333</ele>
        <time>2026-06-10T14:20:00.281Z</time>
      </trkpt>
      <trkpt lat="32.5644488" lon="35.1495938">
        <ele>230.59520096191878</ele>
        <time>2026-06-10T14:20:01.281Z</time>
      </trkpt>
      <trkpt lat="32.5642009" lon="35.1496177">
        <ele>229.28091055338476</ele>
        <time>2026-06-10T14:20:02.281Z</time>
      </trkpt>
      <trkpt lat="32.563979" lon="35.1494987">
        <ele>228.03774161009147</ele>
        <time>2026-06-10T14:20:03.281Z</time>
      </trkpt>
      <trkpt lat="32.5638111" lon="35.149283">
        <ele>227.1032976176649</ele>
        <time>2026-06-10T14:20:04.281Z</time>
      </trkpt>
      <trkpt lat="32.56364" lon="35.149052">
        <ele>227.73427840317186</ele>
        <time>2026-06-10T14:20:05.281Z</time>
      </trkpt>
      <trkpt lat="32.5634865" lon="35.1488518">
        <ele>228.35327115940828</ele>
        <time>2026-06-10T14:20:06.281Z</time>
      </trkpt>
      <trkpt lat="32.5633394" lon="35.1486153">
        <ele>229.55089513818908</ele>
        <time>2026-06-10T14:20:07.281Z</time>
      </trkpt>
      <trkpt lat="32.5632015" lon="35.1483928">
        <ele>230.15061395356636</ele>
        <time>2026-06-10T14:20:08.281Z</time>
      </trkpt>
      <trkpt lat="32.5630816" lon="35.1481287">
        <ele>230.6399165484783</ele>
        <time>2026-06-10T14:20:09.281Z</time>
      </trkpt>
      <trkpt lat="32.5630275" lon="35.1478354">
        <ele>232.12583689499368</ele>
        <time>2026-06-10T14:20:10.281Z</time>
      </trkpt>
      <trkpt lat="32.5629684" lon="35.14755">
        <ele>233.52501475552162</ele>
        <time>2026-06-10T14:20:11.281Z</time>
      </trkpt>
      <trkpt lat="32.5628965" lon="35.1472746">
        <ele>234.27806078366268</ele>
        <time>2026-06-10T14:20:12.281Z</time>
      </trkpt>
      <trkpt lat="32.5628174" lon="35.1469964">
        <ele>234.54247397891052</ele>
        <time>2026-06-10T14:20:13.281Z</time>
      </trkpt>
      <trkpt lat="32.5627599" lon="35.1467318">
        <ele>236.10993470061715</ele>
        <time>2026-06-10T14:20:14.281Z</time>
      </trkpt>
      <trkpt lat="32.5627154" lon="35.1464554">
        <ele>237.51514746472907</ele>
        <time>2026-06-10T14:20:15.281Z</time>
      </trkpt>
      <trkpt lat="32.5626681" lon="35.1461688">
        <ele>238.51137410809207</ele>
        <time>2026-06-10T14:20:16.281Z</time>
      </trkpt>
      <trkpt lat="32.5626998" lon="35.145889">
        <ele>239.57169059737055</ele>
        <time>2026-06-10T14:20:17.281Z</time>
      </trkpt>
      <trkpt lat="32.5627021" lon="35.1455914">
        <ele>240.9600480237501</ele>
        <time>2026-06-10T14:20:18.281Z</time>
      </trkpt>
      <trkpt lat="32.5626593" lon="35.1453037">
        <ele>242.57653026087223</ele>
        <time>2026-06-10T14:20:19.281Z</time>
      </trkpt>
      <trkpt lat="32.56253" lon="35.1450803">
        <ele>242.21338515184695</ele>
        <time>2026-06-10T14:20:20.281Z</time>
      </trkpt>
      <trkpt lat="32.5624154" lon="35.1448024">
        <ele>242.1515268135296</ele>
        <time>2026-06-10T14:20:21.281Z</time>
      </trkpt>
      <trkpt lat="32.5623133" lon="35.1445417">
        <ele>242.53983324143718</ele>
        <time>2026-06-10T14:20:22.281Z</time>
      </trkpt>
      <trkpt lat="32.5622076" lon="35.1442736">
        <ele>243.65968021710813</ele>
        <time>2026-06-10T14:20:23.281Z</time>
      </trkpt>
      <trkpt lat="32.5620865" lon="35.1440311">
        <ele>243.95872145931094</ele>
        <time>2026-06-10T14:20:24.281Z</time>
      </trkpt>
      <trkpt lat="32.5619665" lon="35.1437984">
        <ele>244.85904340456767</ele>
        <time>2026-06-10T14:20:25.281Z</time>
      </trkpt>
      <trkpt lat="32.5618402" lon="35.1435589">
        <ele>245.91935112080475</ele>
        <time>2026-06-10T14:20:26.281Z</time>
      </trkpt>
      <trkpt lat="32.561729" lon="35.1433076">
        <ele>247.12046283006546</ele>
        <time>2026-06-10T14:20:27.281Z</time>
      </trkpt>
      <trkpt lat="32.5616102" lon="35.143077">
        <ele>248.0591975691871</ele>
        <time>2026-06-10T14:20:28.281Z</time>
      </trkpt>
      <trkpt lat="32.5614806" lon="35.1428131">
        <ele>249.91831720957003</ele>
        <time>2026-06-10T14:20:29.281Z</time>
      </trkpt>
      <trkpt lat="32.5614833" lon="35.1425365">
        <ele>252.26428934521485</ele>
        <time>2026-06-10T14:20:30.281Z</time>
      </trkpt>
      <trkpt lat="32.5612582" lon="35.1424217">
        <ele>252.63043804659742</ele>
        <time>2026-06-10T14:20:31.281Z</time>
      </trkpt>
      <trkpt lat="32.5610209" lon="35.1423871">
        <ele>252.2295494894312</ele>
        <time>2026-06-10T14:20:32.281Z</time>
      </trkpt>
      <trkpt lat="32.5607726" lon="35.142282">
        <ele>252.09405879733947</ele>
        <time>2026-06-10T14:20:33.281Z</time>
      </trkpt>
      <trkpt lat="32.5605527" lon="35.1421629">
        <ele>252.80001343634171</ele>
        <time>2026-06-10T14:20:34.281Z</time>
      </trkpt>
      <trkpt lat="32.5603322" lon="35.1420795">
        <ele>253.29811794101775</ele>
        <time>2026-06-10T14:20:35.281Z</time>
      </trkpt>
      <trkpt lat="32.5600998" lon="35.1420235">
        <ele>254.51188458396598</ele>
        <time>2026-06-10T14:20:36.281Z</time>
      </trkpt>
      <trkpt lat="32.5598797" lon="35.1419285">
        <ele>255.6729159260506</ele>
        <time>2026-06-10T14:20:37.281Z</time>
      </trkpt>
      <trkpt lat="32.5597575" lon="35.1416867">
        <ele>258.25393406130684</ele>
        <time>2026-06-10T14:20:38.281Z</time>
      </trkpt>
      <trkpt lat="32.5595865" lon="35.1415115">
        <ele>260.1437239386913</ele>
        <time>2026-06-10T14:20:39.281Z</time>
      </trkpt>
      <trkpt lat="32.5593492" lon="35.1415339">
        <ele>259.2449873955834</ele>
        <time>2026-06-10T14:20:40.281Z</time>
      </trkpt>
      <trkpt lat="32.5590986" lon="35.1415068">
        <ele>258.55196670162945</ele>
        <time>2026-06-10T14:20:41.281Z</time>
      </trkpt>
      <trkpt lat="32.558864" lon="35.1414866">
        <ele>258.95526241431145</ele>
        <time>2026-06-10T14:20:42.281Z</time>
      </trkpt>
      <trkpt lat="32.5586165" lon="35.1414771">
        <ele>259.70414050435664</ele>
        <time>2026-06-10T14:20:43.281Z</time>
      </trkpt>
      <trkpt lat="32.5584268" lon="35.1413169">
        <ele>261.4877179081276</ele>
        <time>2026-06-10T14:20:44.281Z</time>
      </trkpt>
      <trkpt lat="32.5582631" lon="35.1411159">
        <ele>263.9215574420739</ele>
        <time>2026-06-10T14:20:45.281Z</time>
      </trkpt>
      <trkpt lat="32.5580823" lon="35.1409465">
        <ele>266.4591093533911</ele>
        <time>2026-06-10T14:20:46.281Z</time>
      </trkpt>
      <trkpt lat="32.557861" lon="35.1407901">
        <ele>267.3851432269672</ele>
        <time>2026-06-10T14:20:47.281Z</time>
      </trkpt>
      <trkpt lat="32.557669" lon="35.1406232">
        <ele>269.1874602150525</ele>
        <time>2026-06-10T14:20:48.281Z</time>
      </trkpt>
      <trkpt lat="32.5574666" lon="35.1404934">
        <ele>269.39545182600494</ele>
        <time>2026-06-10T14:20:49.281Z</time>
      </trkpt>
      <trkpt lat="32.5572367" lon="35.1403752">
        <ele>269.45117225050615</ele>
        <time>2026-06-10T14:20:50.281Z</time>
      </trkpt>
      <trkpt lat="32.5569971" lon="35.1402466">
        <ele>270.35632268856136</ele>
        <time>2026-06-10T14:20:51.281Z</time>
      </trkpt>
      <trkpt lat="32.5567841" lon="35.1401148">
        <ele>272.5544853179584</ele>
        <time>2026-06-10T14:20:52.281Z</time>
      </trkpt>
      <trkpt lat="32.5565789" lon="35.1399971">
        <ele>274.03198777653597</ele>
        <time>2026-06-10T14:20:53.281Z</time>
      </trkpt>
      <trkpt lat="32.5563661" lon="35.1398507">
        <ele>275.3158502850595</ele>
        <time>2026-06-10T14:20:54.281Z</time>
      </trkpt>
      <trkpt lat="32.556175" lon="35.1396963">
        <ele>276.724644690432</ele>
        <time>2026-06-10T14:20:55.281Z</time>
      </trkpt>
      <trkpt lat="32.5559836" lon="35.139526">
        <ele>277.4747928901469</ele>
        <time>2026-06-10T14:20:56.281Z</time>
      </trkpt>
      <trkpt lat="32.5558081" lon="35.1393458">
        <ele>278.36682094998713</ele>
        <time>2026-06-10T14:20:57.281Z</time>
      </trkpt>
      <trkpt lat="32.5556477" lon="35.139139">
        <ele>279.16165385211366</ele>
        <time>2026-06-10T14:20:58.281Z</time>
      </trkpt>
      <trkpt lat="32.5554907" lon="35.1389304">
        <ele>279.56984700637366</ele>
        <time>2026-06-10T14:20:59.281Z</time>
      </trkpt>
      <trkpt lat="32.5553717" lon="35.1386981">
        <ele>281.1953281000054</ele>
        <time>2026-06-10T14:21:00.281Z</time>
      </trkpt>
      <trkpt lat="32.5552583" lon="35.1384503">
        <ele>282.8344278998441</ele>
        <time>2026-06-10T14:21:01.281Z</time>
      </trkpt>
      <trkpt lat="32.5551248" lon="35.1382124">
        <ele>283.27778974397864</ele>
        <time>2026-06-10T14:21:02.281Z</time>
      </trkpt>
      <trkpt lat="32.554982" lon="35.1379686">
        <ele>283.47874086317404</ele>
        <time>2026-06-10T14:21:03.281Z</time>
      </trkpt>
      <trkpt lat="32.5548728" lon="35.1377037">
        <ele>283.39738243775366</ele>
        <time>2026-06-10T14:21:04.281Z</time>
      </trkpt>
      <trkpt lat="32.5547704" lon="35.1374328">
        <ele>283.5199793672852</ele>
        <time>2026-06-10T14:21:05.281Z</time>
      </trkpt>
      <trkpt lat="32.554671" lon="35.1371893">
        <ele>285.4795573778106</ele>
        <time>2026-06-10T14:21:06.281Z</time>
      </trkpt>
      <trkpt lat="32.5545486" lon="35.1369554">
        <ele>286.72167625019586</ele>
        <time>2026-06-10T14:21:07.281Z</time>
      </trkpt>
      <trkpt lat="32.5544034" lon="35.136717">
        <ele>288.0329362397706</ele>
        <time>2026-06-10T14:21:08.281Z</time>
      </trkpt>
      <trkpt lat="32.5542744" lon="35.1364926">
        <ele>289.1580448749725</ele>
        <time>2026-06-10T14:21:09.281Z</time>
      </trkpt>
      <trkpt lat="32.554184" lon="35.1362331">
        <ele>291.7968028934623</ele>
        <time>2026-06-10T14:21:10.281Z</time>
      </trkpt>
      <trkpt lat="32.5541458" lon="35.1359697">
        <ele>293.06813676708236</ele>
        <time>2026-06-10T14:21:11.281Z</time>
      </trkpt>
      <trkpt lat="32.5541113" lon="35.1356996">
        <ele>296.2348184190099</ele>
        <time>2026-06-10T14:21:12.281Z</time>
      </trkpt>
      <trkpt lat="32.5539088" lon="35.1355432">
        <ele>297.1009910212339</ele>
        <time>2026-06-10T14:21:13.281Z</time>
      </trkpt>
      <trkpt lat="32.5536779" lon="35.1354956">
        <ele>298.3845344762345</ele>
        <time>2026-06-10T14:21:14.281Z</time>
      </trkpt>
      <trkpt lat="32.5534439" lon="35.1354292">
        <ele>300.1135391102771</ele>
        <time>2026-06-10T14:21:15.281Z</time>
      </trkpt>
      <trkpt lat="32.5532253" lon="35.1353288">
        <ele>301.1776528520735</ele>
        <time>2026-06-10T14:21:16.281Z</time>
      </trkpt>
      <trkpt lat="32.5530252" lon="35.1351884">
        <ele>301.9163804001199</ele>
        <time>2026-06-10T14:21:17.281Z</time>
      </trkpt>
      <trkpt lat="32.5528419" lon="35.1350167">
        <ele>303.2709702378736</ele>
        <time>2026-06-10T14:21:18.281Z</time>
      </trkpt>
      <trkpt lat="32.5526469" lon="35.1348334">
        <ele>304.1512414835521</ele>
        <time>2026-06-10T14:21:19.281Z</time>
      </trkpt>
      <trkpt lat="32.5524731" lon="35.134656">
        <ele>304.9136902662001</ele>
        <time>2026-06-10T14:21:20.281Z</time>
      </trkpt>
      <trkpt lat="32.5523697" lon="35.1344023">
        <ele>308.9048892308133</ele>
        <time>2026-06-10T14:21:21.281Z</time>
      </trkpt>
      <trkpt lat="32.5522527" lon="35.1341697">
        <ele>311.83125248660804</ele>
        <time>2026-06-10T14:21:22.281Z</time>
      </trkpt>
      <trkpt lat="32.5521071" lon="35.133965">
        <ele>313.93050749021245</ele>
        <time>2026-06-10T14:21:23.281Z</time>
      </trkpt>
      <trkpt lat="32.5519209" lon="35.1338109">
        <ele>316.6893380765092</ele>
        <time>2026-06-10T14:21:24.281Z</time>
      </trkpt>
      <trkpt lat="32.5517597" lon="35.1335885">
        <ele>319.14698823033825</ele>
        <time>2026-06-10T14:21:25.281Z</time>
      </trkpt>
      <trkpt lat="32.551604" lon="35.1333672">
        <ele>321.93779220206545</ele>
        <time>2026-06-10T14:21:26.281Z</time>
      </trkpt>
      <trkpt lat="32.5514172" lon="35.1331827">
        <ele>325.4099834255652</ele>
        <time>2026-06-10T14:21:27.281Z</time>
      </trkpt>
      <trkpt lat="32.551213" lon="35.1330389">
        <ele>328.26404453810335</ele>
        <time>2026-06-10T14:21:28.281Z</time>
      </trkpt>
      <trkpt lat="32.5510102" lon="35.1329188">
        <ele>331.1100828579459</ele>
        <time>2026-06-10T14:21:29.281Z</time>
      </trkpt>
      <trkpt lat="32.5508082" lon="35.1327996">
        <ele>332.9423222768203</ele>
        <time>2026-06-10T14:21:30.281Z</time>
      </trkpt>
      <trkpt lat="32.5505936" lon="35.1326802">
        <ele>337.17054423080464</ele>
        <time>2026-06-10T14:21:31.281Z</time>
      </trkpt>
      <trkpt lat="32.5503892" lon="35.1325568">
        <ele>340.00438401735005</ele>
        <time>2026-06-10T14:21:32.281Z</time>
      </trkpt>
      <trkpt lat="32.5501512" lon="35.1324854">
        <ele>343.3997682040125</ele>
        <time>2026-06-10T14:21:33.281Z</time>
      </trkpt>
      <trkpt lat="32.5499069" lon="35.1324282">
        <ele>348.1742692528252</ele>
        <time>2026-06-10T14:21:34.281Z</time>
      </trkpt>
      <trkpt lat="32.5496571" lon="35.1323711">
        <ele>352.7004272171483</ele>
        <time>2026-06-10T14:21:35.281Z</time>
      </trkpt>
      <trkpt lat="32.5494322" lon="35.1323328">
        <ele>359.3080215822107</ele>
        <time>2026-06-10T14:21:36.281Z</time>
      </trkpt>
      <trkpt lat="32.5492833" lon="35.1325696">
        <ele>364.63778569214185</ele>
        <time>2026-06-10T14:21:37.281Z</time>
      </trkpt>
      <trkpt lat="32.5492575" lon="35.1323012">
        <ele>365.78469753759146</ele>
        <time>2026-06-10T14:21:38.281Z</time>
      </trkpt>
      <trkpt lat="32.5493495" lon="35.1320402">
        <ele>365.22474807924283</ele>
        <time>2026-06-10T14:21:39.281Z</time>
      </trkpt>
      <trkpt lat="32.5494793" lon="35.131808">
        <ele>364.76425443378184</ele>
        <time>2026-06-10T14:21:40.281Z</time>
      </trkpt>
      <trkpt lat="32.5496647" lon="35.1316428">
        <ele>365.15901592976286</ele>
        <time>2026-06-10T14:21:41.281Z</time>
      </trkpt>
      <trkpt lat="32.5498863" lon="35.1315236">
        <ele>366.4033052677477</ele>
        <time>2026-06-10T14:21:42.281Z</time>
      </trkpt>
      <trkpt lat="32.5501191" lon="35.1314615">
        <ele>367.3204459302463</ele>
        <time>2026-06-10T14:21:43.281Z</time>
      </trkpt>
      <trkpt lat="32.5503505" lon="35.1314362">
        <ele>367.9767189431351</ele>
        <time>2026-06-10T14:21:44.281Z</time>
      </trkpt>
      <trkpt lat="32.5505818" lon="35.1314662">
        <ele>367.59481589510807</ele>
        <time>2026-06-10T14:21:45.281Z</time>
      </trkpt>
      <trkpt lat="32.5508259" lon="35.1314651">
        <ele>367.97971947191473</ele>
        <time>2026-06-10T14:21:46.281Z</time>
      </trkpt>
      <trkpt lat="32.5509482" lon="35.1312367">
        <ele>370.9045412164128</ele>
        <time>2026-06-10T14:21:47.281Z</time>
      </trkpt>
      <trkpt lat="32.550917" lon="35.1309609">
        <ele>372.3073590512656</ele>
        <time>2026-06-10T14:21:48.281Z</time>
      </trkpt>
      <trkpt lat="32.5511552" lon="35.1308782">
        <ele>370.67571751381195</ele>
        <time>2026-06-10T14:21:49.281Z</time>
      </trkpt>
      <trkpt lat="32.5513884" lon="35.1308419">
        <ele>368.1462932357226</ele>
        <time>2026-06-10T14:21:50.281Z</time>
      </trkpt>
      <trkpt lat="32.551623" lon="35.1307658">
        <ele>366.98704783434886</ele>
        <time>2026-06-10T14:21:51.281Z</time>
      </trkpt>
      <trkpt lat="32.5520033" lon="35.130442">
        <ele>363.825301180368</ele>
        <time>2026-06-10T14:21:52.281Z</time>
      </trkpt>
      <trkpt lat="32.5521638" lon="35.1302464">
        <ele>362.56185320711813</ele>
        <time>2026-06-10T14:21:53.281Z</time>
      </trkpt>
      <trkpt lat="32.5523382" lon="35.1300551">
        <ele>361.05848310913416</ele>
        <time>2026-06-10T14:21:54.281Z</time>
      </trkpt>
      <trkpt lat="32.5525219" lon="35.1298659">
        <ele>360.83952745381623</ele>
        <time>2026-06-10T14:21:55.281Z</time>
      </trkpt>
      <trkpt lat="32.5527148" lon="35.129691">
        <ele>359.6302226214086</ele>
        <time>2026-06-10T14:21:56.281Z</time>
      </trkpt>
      <trkpt lat="32.552923" lon="35.129542">
        <ele>358.3373735702097</ele>
        <time>2026-06-10T14:21:57.281Z</time>
      </trkpt>
      <trkpt lat="32.5531323" lon="35.1294388">
        <ele>357.0912641933454</ele>
        <time>2026-06-10T14:21:58.281Z</time>
      </trkpt>
      <trkpt lat="32.5533646" lon="35.1294181">
        <ele>355.7046121126758</ele>
        <time>2026-06-10T14:21:59.281Z</time>
      </trkpt>
      <trkpt lat="32.5535917" lon="35.1294727">
        <ele>353.8879883204245</ele>
        <time>2026-06-10T14:22:00.281Z</time>
      </trkpt>
      <trkpt lat="32.5538021" lon="35.1296017">
        <ele>353.32261281933785</ele>
        <time>2026-06-10T14:22:01.281Z</time>
      </trkpt>
      <trkpt lat="32.5539979" lon="35.1297509">
        <ele>351.6011975395659</ele>
        <time>2026-06-10T14:22:02.281Z</time>
      </trkpt>
      <trkpt lat="32.5541903" lon="35.1299525">
        <ele>349.8359499586617</ele>
        <time>2026-06-10T14:22:03.281Z</time>
      </trkpt>
      <trkpt lat="32.5543599" lon="35.130142">
        <ele>349.77209835989913</ele>
        <time>2026-06-10T14:22:04.281Z</time>
      </trkpt>
      <trkpt lat="32.5545733" lon="35.1302895">
        <ele>350.94360200944595</ele>
        <time>2026-06-10T14:22:05.281Z</time>
      </trkpt>
      <trkpt lat="32.5547643" lon="35.1301019">
        <ele>350.9418562308578</ele>
        <time>2026-06-10T14:22:06.281Z</time>
      </trkpt>
      <trkpt lat="32.55487" lon="35.1298248">
        <ele>349.93482866040813</ele>
        <time>2026-06-10T14:22:07.281Z</time>
      </trkpt>
      <trkpt lat="32.5549788" lon="35.1295914">
        <ele>349.36701816119717</ele>
        <time>2026-06-10T14:22:08.281Z</time>
      </trkpt>
      <trkpt lat="32.5551429" lon="35.1293683">
        <ele>348.6227687702153</ele>
        <time>2026-06-10T14:22:09.281Z</time>
      </trkpt>
      <trkpt lat="32.5553755" lon="35.1292562">
        <ele>348.5297224143143</ele>
        <time>2026-06-10T14:22:10.281Z</time>
      </trkpt>
      <trkpt lat="32.5556023" lon="35.1291939">
        <ele>347.78224757465597</ele>
        <time>2026-06-10T14:22:11.281Z</time>
      </trkpt>
      <trkpt lat="32.5558301" lon="35.1291547">
        <ele>346.50937219819235</ele>
        <time>2026-06-10T14:22:12.281Z</time>
      </trkpt>
      <trkpt lat="32.5560634" lon="35.1291483">
        <ele>346.87006350410104</ele>
        <time>2026-06-10T14:22:13.281Z</time>
      </trkpt>
      <trkpt lat="32.5562988" lon="35.1291294">
        <ele>346.9625700681606</ele>
        <time>2026-06-10T14:22:14.281Z</time>
      </trkpt>
      <trkpt lat="32.5564134" lon="35.1288908">
        <ele>347.02442484508686</ele>
        <time>2026-06-10T14:22:15.281Z</time>
      </trkpt>
      <trkpt lat="32.5562653" lon="35.1286749">
        <ele>345.4756786039096</ele>
        <time>2026-06-10T14:22:16.281Z</time>
      </trkpt>
      <trkpt lat="32.5560696" lon="35.1285278">
        <ele>342.6958186162292</ele>
        <time>2026-06-10T14:22:17.281Z</time>
      </trkpt>
      <trkpt lat="32.5558647" lon="35.1284029">
        <ele>340.38601129966366</ele>
        <time>2026-06-10T14:22:18.281Z</time>
      </trkpt>
      <trkpt lat="32.5556519" lon="35.128273">
        <ele>337.4734469874116</ele>
        <time>2026-06-10T14:22:19.281Z</time>
      </trkpt>
      <trkpt lat="32.5554502" lon="35.1281354">
        <ele>335.25438875064077</ele>
        <time>2026-06-10T14:22:20.281Z</time>
      </trkpt>
      <trkpt lat="32.555269" lon="35.1279668">
        <ele>332.8698478024032</ele>
        <time>2026-06-10T14:22:21.281Z</time>
      </trkpt>
      <trkpt lat="32.5551011" lon="35.1277878">
        <ele>330.8829905014501</ele>
        <time>2026-06-10T14:22:22.281Z</time>
      </trkpt>
      <trkpt lat="32.5549181" lon="35.1276195">
        <ele>328.73506678268114</ele>
        <time>2026-06-10T14:22:23.281Z</time>
      </trkpt>
      <trkpt lat="32.5547346" lon="35.1274537">
        <ele>326.20208854088617</ele>
        <time>2026-06-10T14:22:24.281Z</time>
      </trkpt>
      <trkpt lat="32.5544879" lon="35.1275792">
        <ele>320.3078846895618</ele>
        <time>2026-06-10T14:22:25.281Z</time>
      </trkpt>
      <trkpt lat="32.5545615" lon="35.1278418">
        <ele>318.748792481475</ele>
        <time>2026-06-10T14:22:26.281Z</time>
      </trkpt>
      <trkpt lat="32.5545547" lon="35.1281099">
        <ele>318.57085266431915</ele>
        <time>2026-06-10T14:22:27.281Z</time>
      </trkpt>
      <trkpt lat="32.5544019" lon="35.1283507">
        <ele>318.96709558892104</ele>
        <time>2026-06-10T14:22:28.281Z</time>
      </trkpt>
      <trkpt lat="32.5541546" lon="35.1283647">
        <ele>318.6584991081001</ele>
        <time>2026-06-10T14:22:29.281Z</time>
      </trkpt>
      <trkpt lat="32.5539548" lon="35.1281939">
        <ele>318.7686476637648</ele>
        <time>2026-06-10T14:22:30.281Z</time>
      </trkpt>
      <trkpt lat="32.5537126" lon="35.1280495">
        <ele>317.40312023169275</ele>
        <time>2026-06-10T14:22:31.281Z</time>
      </trkpt>
      <trkpt lat="32.5534796" lon="35.1280329">
        <ele>316.940617567024</ele>
        <time>2026-06-10T14:22:32.281Z</time>
      </trkpt>
      <trkpt lat="32.5532581" lon="35.1280913">
        <ele>316.7157771073843</ele>
        <time>2026-06-10T14:22:33.281Z</time>
      </trkpt>
      <trkpt lat="32.5530391" lon="35.1281927">
        <ele>318.06526735117785</ele>
        <time>2026-06-10T14:22:34.281Z</time>
      </trkpt>
      <trkpt lat="32.5527997" lon="35.1282953">
        <ele>317.72645272756216</ele>
        <time>2026-06-10T14:22:35.281Z</time>
      </trkpt>
      <trkpt lat="32.5525638" lon="35.1283612">
        <ele>319.2794783557601</ele>
        <time>2026-06-10T14:22:36.281Z</time>
      </trkpt>
      <trkpt lat="32.5523432" lon="35.1282743">
        <ele>318.7710227513751</ele>
        <time>2026-06-10T14:22:37.281Z</time>
      </trkpt>
      <trkpt lat="32.5523361" lon="35.1280055">
        <ele>319.6697562858092</ele>
        <time>2026-06-10T14:22:38.281Z</time>
      </trkpt>
      <trkpt lat="32.5525195" lon="35.1278453">
        <ele>318.43749606226396</ele>
        <time>2026-06-10T14:22:39.281Z</time>
      </trkpt>
      <trkpt lat="32.5527004" lon="35.1276561">
        <ele>316.64247647333775</ele>
        <time>2026-06-10T14:22:40.281Z</time>
      </trkpt>
      <trkpt lat="32.5528614" lon="35.1274427">
        <ele>316.280906509184</ele>
        <time>2026-06-10T14:22:41.281Z</time>
      </trkpt>
      <trkpt lat="32.5529655" lon="35.1271976">
        <ele>314.2489070535395</ele>
        <time>2026-06-10T14:22:42.281Z</time>
      </trkpt>
      <trkpt lat="32.5531263" lon="35.1266673">
        <ele>311.69116220583254</ele>
        <time>2026-06-10T14:22:43.281Z</time>
      </trkpt>
      <trkpt lat="32.5531985" lon="35.1263855">
        <ele>309.6421621253466</ele>
        <time>2026-06-10T14:22:44.281Z</time>
      </trkpt>
      <trkpt lat="32.5532447" lon="35.1261119">
        <ele>307.4234226652368</ele>
        <time>2026-06-10T14:22:45.281Z</time>
      </trkpt>
      <trkpt lat="32.5533214" lon="35.125569">
        <ele>304.0168170247136</ele>
        <time>2026-06-10T14:22:46.281Z</time>
      </trkpt>
      <trkpt lat="32.5533289" lon="35.1253012">
        <ele>302.18214645343267</ele>
        <time>2026-06-10T14:22:47.281Z</time>
      </trkpt>
      <trkpt lat="32.5533319" lon="35.125024">
        <ele>300.76528622427793</ele>
        <time>2026-06-10T14:22:48.281Z</time>
      </trkpt>
      <trkpt lat="32.5533522" lon="35.1247549">
        <ele>299.6268003997263</ele>
        <time>2026-06-10T14:22:49.281Z</time>
      </trkpt>
      <trkpt lat="32.5533751" lon="35.1244798">
        <ele>298.6731399424651</ele>
        <time>2026-06-10T14:22:50.281Z</time>
      </trkpt>
      <trkpt lat="32.5533853" lon="35.1242086">
        <ele>298.0815606783846</ele>
        <time>2026-06-10T14:22:51.281Z</time>
      </trkpt>
      <trkpt lat="32.5533869" lon="35.1239028">
        <ele>297.32487552745783</ele>
        <time>2026-06-10T14:22:52.281Z</time>
      </trkpt>
      <trkpt lat="32.5533473" lon="35.1236113">
        <ele>297.1849367757442</ele>
        <time>2026-06-10T14:22:53.281Z</time>
      </trkpt>
      <trkpt lat="32.5533002" lon="35.1233504">
        <ele>296.5273209998588</ele>
        <time>2026-06-10T14:22:54.281Z</time>
      </trkpt>
      <trkpt lat="32.5532701" lon="35.1230827">
        <ele>296.5561908801714</ele>
        <time>2026-06-10T14:22:55.281Z</time>
      </trkpt>
      <trkpt lat="32.5532489" lon="35.1227699">
        <ele>295.2654664854756</ele>
        <time>2026-06-10T14:22:56.281Z</time>
      </trkpt>
      <trkpt lat="32.553237" lon="35.1224856">
        <ele>294.50459951525465</ele>
        <time>2026-06-10T14:22:57.281Z</time>
      </trkpt>
      <trkpt lat="32.5532358" lon="35.1221996">
        <ele>294.4392035992047</ele>
        <time>2026-06-10T14:22:58.281Z</time>
      </trkpt>
      <trkpt lat="32.5532582" lon="35.121913">
        <ele>293.60656111268145</ele>
        <time>2026-06-10T14:22:59.281Z</time>
      </trkpt>
      <trkpt lat="32.5532888" lon="35.1216278">
        <ele>292.9008677523739</ele>
        <time>2026-06-10T14:23:00.281Z</time>
      </trkpt>
      <trkpt lat="32.553325" lon="35.1213494">
        <ele>292.0920610295296</ele>
        <time>2026-06-10T14:23:01.281Z</time>
      </trkpt>
      <trkpt lat="32.5533667" lon="35.121077">
        <ele>291.57488648732755</ele>
        <time>2026-06-10T14:23:02.281Z</time>
      </trkpt>
      <trkpt lat="32.553411" lon="35.1207998">
        <ele>290.5855009576459</ele>
        <time>2026-06-10T14:23:03.281Z</time>
      </trkpt>
      <trkpt lat="32.5534822" lon="35.1204901">
        <ele>290.25676407094124</ele>
        <time>2026-06-10T14:23:04.281Z</time>
      </trkpt>
      <trkpt lat="32.5535551" lon="35.1202161">
        <ele>289.08242523584175</ele>
        <time>2026-06-10T14:23:05.281Z</time>
      </trkpt>
      <trkpt lat="32.5536221" lon="35.1199446">
        <ele>288.8554044779599</ele>
        <time>2026-06-10T14:23:06.281Z</time>
      </trkpt>
      <trkpt lat="32.5536942" lon="35.1196652">
        <ele>288.9301930584503</ele>
        <time>2026-06-10T14:23:07.281Z</time>
      </trkpt>
      <trkpt lat="32.5538071" lon="35.1194194">
        <ele>287.543781627025</ele>
        <time>2026-06-10T14:23:08.281Z</time>
      </trkpt>
      <trkpt lat="32.5539453" lon="35.1192017">
        <ele>286.00880131927664</ele>
        <time>2026-06-10T14:23:09.281Z</time>
      </trkpt>
      <trkpt lat="32.5540823" lon="35.1189623">
        <ele>284.29305769230496</ele>
        <time>2026-06-10T14:23:10.281Z</time>
      </trkpt>
      <trkpt lat="32.5542093" lon="35.118725">
        <ele>282.54789523616853</ele>
        <time>2026-06-10T14:23:11.281Z</time>
      </trkpt>
      <trkpt lat="32.5543416" lon="35.1185004">
        <ele>281.5909720482298</ele>
        <time>2026-06-10T14:23:12.281Z</time>
      </trkpt>
      <trkpt lat="32.5543734" lon="35.1182352">
        <ele>280.79387939704776</ele>
        <time>2026-06-10T14:23:13.281Z</time>
      </trkpt>
      <trkpt lat="32.5543914" lon="35.1179425">
        <ele>278.9127478178247</ele>
        <time>2026-06-10T14:23:14.281Z</time>
      </trkpt>
      <trkpt lat="32.5543462" lon="35.1176685">
        <ele>276.8373530866255</ele>
        <time>2026-06-10T14:23:15.281Z</time>
      </trkpt>
      <trkpt lat="32.5542525" lon="35.1174123">
        <ele>275.63794698482883</ele>
        <time>2026-06-10T14:23:16.281Z</time>
      </trkpt>
      <trkpt lat="32.5541312" lon="35.1171811">
        <ele>273.0010928091425</ele>
        <time>2026-06-10T14:23:17.281Z</time>
      </trkpt>
      <trkpt lat="32.5539913" lon="35.1169568">
        <ele>270.98743024749456</ele>
        <time>2026-06-10T14:23:18.281Z</time>
      </trkpt>
      <trkpt lat="32.5538452" lon="35.1167293">
        <ele>269.31032589879817</ele>
        <time>2026-06-10T14:23:19.281Z</time>
      </trkpt>
      <trkpt lat="32.5537009" lon="35.1165118">
        <ele>267.7364744496575</ele>
        <time>2026-06-10T14:23:20.281Z</time>
      </trkpt>
      <trkpt lat="32.5535503" lon="35.1162993">
        <ele>265.6319659391984</ele>
        <time>2026-06-10T14:23:21.281Z</time>
      </trkpt>
      <trkpt lat="32.5533823" lon="35.116088">
        <ele>263.2571824573831</ele>
        <time>2026-06-10T14:23:22.281Z</time>
      </trkpt>
      <trkpt lat="32.5532177" lon="35.1158752">
        <ele>260.7043680958365</ele>
        <time>2026-06-10T14:23:23.281Z</time>
      </trkpt>
      <trkpt lat="32.5530789" lon="35.1156573">
        <ele>258.7729892847493</ele>
        <time>2026-06-10T14:23:24.281Z</time>
      </trkpt>
      <trkpt lat="32.5529438" lon="35.1154296">
        <ele>257.12469384170936</ele>
        <time>2026-06-10T14:23:25.281Z</time>
      </trkpt>
      <trkpt lat="32.5527947" lon="35.115213">
        <ele>254.58138952701083</ele>
        <time>2026-06-10T14:23:26.281Z</time>
      </trkpt>
      <trkpt lat="32.5526604" lon="35.1149896">
        <ele>253.20068359375</ele>
        <time>2026-06-10T14:23:27.281Z</time>
      </trkpt>
      <trkpt lat="32.5525352" lon="35.1147585">
        <ele>250.9437185370566</ele>
        <time>2026-06-10T14:23:28.281Z</time>
      </trkpt>
      <trkpt lat="32.5524021" lon="35.1145301">
        <ele>249.00234990299543</ele>
        <time>2026-06-10T14:23:29.281Z</time>
      </trkpt>
      <trkpt lat="32.552286" lon="35.1142906">
        <ele>247.25743507959035</ele>
        <time>2026-06-10T14:23:30.281Z</time>
      </trkpt>
      <trkpt lat="32.55219" lon="35.1140233">
        <ele>245.87956067878082</ele>
        <time>2026-06-10T14:23:31.281Z</time>
      </trkpt>
      <trkpt lat="32.5521239" lon="35.1137443">
        <ele>244.27085411111344</ele>
        <time>2026-06-10T14:23:32.281Z</time>
      </trkpt>
      <trkpt lat="32.5520543" lon="35.1134693">
        <ele>242.71486636507282</ele>
        <time>2026-06-10T14:23:33.281Z</time>
      </trkpt>
      <trkpt lat="32.5519774" lon="35.1132011">
        <ele>241.13727672807138</ele>
        <time>2026-06-10T14:23:34.281Z</time>
      </trkpt>
      <trkpt lat="32.5518987" lon="35.1129228">
        <ele>238.99588937259048</ele>
        <time>2026-06-10T14:23:35.281Z</time>
      </trkpt>
      <trkpt lat="32.5518539" lon="35.1126478">
        <ele>237.30725646059497</ele>
        <time>2026-06-10T14:23:36.281Z</time>
      </trkpt>
      <trkpt lat="32.5517804" lon="35.1123729">
        <ele>236.3847450611773</ele>
        <time>2026-06-10T14:23:37.281Z</time>
      </trkpt>
      <trkpt lat="32.5517055" lon="35.1121213">
        <ele>235.07544507287534</ele>
        <time>2026-06-10T14:23:38.281Z</time>
      </trkpt>
      <trkpt lat="32.5516645" lon="35.1118382">
        <ele>233.01866284600675</ele>
        <time>2026-06-10T14:23:39.281Z</time>
      </trkpt>
      <trkpt lat="32.5516418" lon="35.1115578">
        <ele>231.77164965400937</ele>
        <time>2026-06-10T14:23:40.281Z</time>
      </trkpt>
      <trkpt lat="32.5516776" lon="35.1112889">
        <ele>229.32645306237094</ele>
        <time>2026-06-10T14:23:41.281Z</time>
      </trkpt>
      <trkpt lat="32.5517397" lon="35.1110157">
        <ele>228.10067352821673</ele>
        <time>2026-06-10T14:23:42.281Z</time>
      </trkpt>
      <trkpt lat="32.5518417" lon="35.11077">
        <ele>226.6263587988491</ele>
        <time>2026-06-10T14:23:43.281Z</time>
      </trkpt>
      <trkpt lat="32.5520041" lon="35.1105516">
        <ele>225.98520974736542</ele>
        <time>2026-06-10T14:23:44.281Z</time>
      </trkpt>
      <trkpt lat="32.5521101" lon="35.1103092">
        <ele>224.57257980033228</ele>
        <time>2026-06-10T14:23:45.281Z</time>
      </trkpt>
      <trkpt lat="32.5522476" lon="35.1100904">
        <ele>222.91848537759304</ele>
        <time>2026-06-10T14:23:46.281Z</time>
      </trkpt>
      <trkpt lat="32.5523935" lon="35.1098566">
        <ele>221.2983349622923</ele>
        <time>2026-06-10T14:23:47.281Z</time>
      </trkpt>
      <trkpt lat="32.5525406" lon="35.109631">
        <ele>219.76320569341442</ele>
        <time>2026-06-10T14:23:48.281Z</time>
      </trkpt>
      <trkpt lat="32.5526956" lon="35.1094268">
        <ele>217.9144943468879</ele>
        <time>2026-06-10T14:23:49.281Z</time>
      </trkpt>
      <trkpt lat="32.5528526" lon="35.1092279">
        <ele>216.38155808459635</ele>
        <time>2026-06-10T14:23:50.281Z</time>
      </trkpt>
      <trkpt lat="32.5530159" lon="35.1090396">
        <ele>214.24600753538087</ele>
        <time>2026-06-10T14:23:51.281Z</time>
      </trkpt>
      <trkpt lat="32.5531689" lon="35.1088381">
        <ele>211.99005736775453</ele>
        <time>2026-06-10T14:23:52.281Z</time>
      </trkpt>
      <trkpt lat="32.5533209" lon="35.1086339">
        <ele>210.74008934343559</ele>
        <time>2026-06-10T14:23:53.281Z</time>
      </trkpt>
      <trkpt lat="32.5534855" lon="35.1084474">
        <ele>209.0113821752406</ele>
        <time>2026-06-10T14:23:54.281Z</time>
      </trkpt>
      <trkpt lat="32.5536638" lon="35.1082758">
        <ele>207.72541233065814</ele>
        <time>2026-06-10T14:23:55.281Z</time>
      </trkpt>
      <trkpt lat="32.5538175" lon="35.1080726">
        <ele>206.40639348367867</ele>
        <time>2026-06-10T14:23:56.281Z</time>
      </trkpt>
      <trkpt lat="32.5538592" lon="35.1077934">
        <ele>206.02172226228166</ele>
        <time>2026-06-10T14:23:57.281Z</time>
      </trkpt>
      <trkpt lat="32.5538035" lon="35.1072982">
        <ele>210.0862474199634</ele>
        <time>2026-06-10T14:23:58.281Z</time>
      </trkpt>
      <trkpt lat="32.5539174" lon="35.1070663">
        <ele>209.7960247055041</ele>
        <time>2026-06-10T14:23:59.281Z</time>
      </trkpt>
      <trkpt lat="32.5540132" lon="35.1068136">
        <ele>208.79377491595736</ele>
        <time>2026-06-10T14:24:00.281Z</time>
      </trkpt>
      <trkpt lat="32.5540638" lon="35.1065468">
        <ele>207.79929408887088</ele>
        <time>2026-06-10T14:24:01.281Z</time>
      </trkpt>
      <trkpt lat="32.5540779" lon="35.1062782">
        <ele>207.59465549564231</ele>
        <time>2026-06-10T14:24:02.281Z</time>
      </trkpt>
      <trkpt lat="32.5540514" lon="35.1059879">
        <ele>207.76853844861117</ele>
        <time>2026-06-10T14:24:03.281Z</time>
      </trkpt>
      <trkpt lat="32.5540508" lon="35.105712">
        <ele>208.1823159606131</ele>
        <time>2026-06-10T14:24:04.281Z</time>
      </trkpt>
      <trkpt lat="32.5540805" lon="35.1054465">
        <ele>208.8583445206401</ele>
        <time>2026-06-10T14:24:05.281Z</time>
      </trkpt>
      <trkpt lat="32.5541645" lon="35.1051892">
        <ele>208.38087749511172</ele>
        <time>2026-06-10T14:24:06.281Z</time>
      </trkpt>
      <trkpt lat="32.5542032" lon="35.1049144">
        <ele>207.84141023675446</ele>
        <time>2026-06-10T14:24:07.281Z</time>
      </trkpt>
      <trkpt lat="32.5542641" lon="35.1046429">
        <ele>207.92347366972638</ele>
        <time>2026-06-10T14:24:08.281Z</time>
      </trkpt>
      <trkpt lat="32.5543879" lon="35.1043864">
        <ele>207.20991999402995</ele>
        <time>2026-06-10T14:24:09.281Z</time>
      </trkpt>
      <trkpt lat="32.5545261" lon="35.1041668">
        <ele>206.2664123309661</ele>
        <time>2026-06-10T14:24:10.281Z</time>
      </trkpt>
      <trkpt lat="32.5546391" lon="35.103907">
        <ele>204.85374138785298</ele>
        <time>2026-06-10T14:24:11.281Z</time>
      </trkpt>
      <trkpt lat="32.5547583" lon="35.1036723">
        <ele>204.04621447032932</ele>
        <time>2026-06-10T14:24:12.281Z</time>
      </trkpt>
      <trkpt lat="32.5548923" lon="35.1034374">
        <ele>202.19632707992307</ele>
        <time>2026-06-10T14:24:13.281Z</time>
      </trkpt>
      <trkpt lat="32.5550432" lon="35.1031917">
        <ele>200.69432490569466</ele>
        <time>2026-06-10T14:24:14.281Z</time>
      </trkpt>
      <trkpt lat="32.5551668" lon="35.1029687">
        <ele>199.98634343501564</ele>
        <time>2026-06-10T14:24:15.281Z</time>
      </trkpt>
      <trkpt lat="32.5553212" lon="35.1027195">
        <ele>197.83896219104886</ele>
        <time>2026-06-10T14:24:16.281Z</time>
      </trkpt>
      <trkpt lat="32.5554421" lon="35.1024913">
        <ele>196.34035560694622</ele>
        <time>2026-06-10T14:24:17.281Z</time>
      </trkpt>
      <trkpt lat="32.5555725" lon="35.1022594">
        <ele>195.76680145123518</ele>
        <time>2026-06-10T14:24:18.281Z</time>
      </trkpt>
      <trkpt lat="32.5556695" lon="35.1020127">
        <ele>194.72684686133718</ele>
        <time>2026-06-10T14:24:19.281Z</time>
      </trkpt>
      <trkpt lat="32.5558726" lon="35.1018679">
        <ele>193.8753336011026</ele>
        <time>2026-06-10T14:24:20.281Z</time>
      </trkpt>
      <trkpt lat="32.5560219" lon="35.1016465">
        <ele>193.40648218888288</ele>
        <time>2026-06-10T14:24:21.281Z</time>
      </trkpt>
      <trkpt lat="32.5561842" lon="35.1014453">
        <ele>193.68400896218031</ele>
        <time>2026-06-10T14:24:22.281Z</time>
      </trkpt>
      <trkpt lat="32.5564211" lon="35.1013439">
        <ele>194.6085009143375</ele>
        <time>2026-06-10T14:24:23.281Z</time>
      </trkpt>
      <trkpt lat="32.556635" lon="35.1012099">
        <ele>194.87206985571407</ele>
        <time>2026-06-10T14:24:24.281Z</time>
      </trkpt>
      <trkpt lat="32.5566663" lon="35.1009438">
        <ele>193.60552785597199</ele>
        <time>2026-06-10T14:24:25.281Z</time>
      </trkpt>
      <trkpt lat="32.5567478" lon="35.1006502">
        <ele>191.93913754198132</ele>
        <time>2026-06-10T14:24:26.281Z</time>
      </trkpt>
      <trkpt lat="32.5568404" lon="35.1003799">
        <ele>191.17404849676095</ele>
        <time>2026-06-10T14:24:27.281Z</time>
      </trkpt>
      <trkpt lat="32.556905" lon="35.1000686">
        <ele>190.70594404415965</ele>
        <time>2026-06-10T14:24:28.281Z</time>
      </trkpt>
      <trkpt lat="32.5569319" lon="35.0997829">
        <ele>190.22118685598969</ele>
        <time>2026-06-10T14:24:29.281Z</time>
      </trkpt>
      <trkpt lat="32.5569295" lon="35.0995111">
        <ele>189.87607951732699</ele>
        <time>2026-06-10T14:24:30.281Z</time>
      </trkpt>
      <trkpt lat="32.5569155" lon="35.0991832">
        <ele>189.23349536836645</ele>
        <time>2026-06-10T14:24:31.281Z</time>
      </trkpt>
      <trkpt lat="32.5569135" lon="35.098886">
        <ele>188.70541630577353</ele>
        <time>2026-06-10T14:24:32.281Z</time>
      </trkpt>
      <trkpt lat="32.5569439" lon="35.0985908">
        <ele>188.32018640844396</ele>
        <time>2026-06-10T14:24:33.281Z</time>
      </trkpt>
      <trkpt lat="32.5569799" lon="35.0982885">
        <ele>187.6691127557897</ele>
        <time>2026-06-10T14:24:34.281Z</time>
      </trkpt>
      <trkpt lat="32.5569848" lon="35.0979847">
        <ele>187.68518595976727</ele>
        <time>2026-06-10T14:24:35.281Z</time>
      </trkpt>
      <trkpt lat="32.5569832" lon="35.0976846">
        <ele>185.78028578891892</ele>
        <time>2026-06-10T14:24:36.281Z</time>
      </trkpt>
      <trkpt lat="32.5569989" lon="35.0971205">
        <ele>185.0704787158572</ele>
        <time>2026-06-10T14:24:37.281Z</time>
      </trkpt>
      <trkpt lat="32.5569653" lon="35.0968179">
        <ele>183.1598031862263</ele>
        <time>2026-06-10T14:24:38.281Z</time>
      </trkpt>
      <trkpt lat="32.5569558" lon="35.0965189">
        <ele>181.37184198117558</ele>
        <time>2026-06-10T14:24:39.281Z</time>
      </trkpt>
      <trkpt lat="32.556927" lon="35.0962335">
        <ele>181.27761207499262</ele>
        <time>2026-06-10T14:24:40.281Z</time>
      </trkpt>
      <trkpt lat="32.5569125" lon="35.0959547">
        <ele>181.31959760941436</ele>
        <time>2026-06-10T14:24:41.281Z</time>
      </trkpt>
      <trkpt lat="32.5569813" lon="35.0956766">
        <ele>180.86390650102334</ele>
        <time>2026-06-10T14:24:42.281Z</time>
      </trkpt>
      <trkpt lat="32.5570645" lon="35.0954287">
        <ele>179.88432151052663</ele>
        <time>2026-06-10T14:24:43.281Z</time>
      </trkpt>
      <trkpt lat="32.5571404" lon="35.0951567">
        <ele>178.71610113548547</ele>
        <time>2026-06-10T14:24:44.281Z</time>
      </trkpt>
      <trkpt lat="32.557236" lon="35.0949093">
        <ele>177.82244114441076</ele>
        <time>2026-06-10T14:24:45.281Z</time>
      </trkpt>
      <trkpt lat="32.5573213" lon="35.0946592">
        <ele>177.17414930713048</ele>
        <time>2026-06-10T14:24:46.281Z</time>
      </trkpt>
      <trkpt lat="32.5574147" lon="35.0943859">
        <ele>176.35336318790488</ele>
        <time>2026-06-10T14:24:47.281Z</time>
      </trkpt>
      <trkpt lat="32.5575001" lon="35.0941385">
        <ele>176.13814367692746</ele>
        <time>2026-06-10T14:24:48.281Z</time>
      </trkpt>
      <trkpt lat="32.5576115" lon="35.0938965">
        <ele>175.94605918535618</ele>
        <time>2026-06-10T14:24:49.281Z</time>
      </trkpt>
      <trkpt lat="32.5577734" lon="35.0936365">
        <ele>175.47993077448788</ele>
        <time>2026-06-10T14:24:50.281Z</time>
      </trkpt>
      <trkpt lat="32.5579462" lon="35.0934489">
        <ele>175.38591331108154</ele>
        <time>2026-06-10T14:24:51.281Z</time>
      </trkpt>
      <trkpt lat="32.5581518" lon="35.0932466">
        <ele>175.34148535911706</ele>
        <time>2026-06-10T14:24:52.281Z</time>
      </trkpt>
      <trkpt lat="32.5583413" lon="35.0930292">
        <ele>174.65941618071847</ele>
        <time>2026-06-10T14:24:53.281Z</time>
      </trkpt>
      <trkpt lat="32.5584836" lon="35.0928076">
        <ele>174.9652086754007</ele>
        <time>2026-06-10T14:24:54.281Z</time>
      </trkpt>
      <trkpt lat="32.5586247" lon="35.0925595">
        <ele>175.119790661328</ele>
        <time>2026-06-10T14:24:55.281Z</time>
      </trkpt>
      <trkpt lat="32.5587704" lon="35.0923068">
        <ele>176.64673995716015</ele>
        <time>2026-06-10T14:24:56.281Z</time>
      </trkpt>
      <trkpt lat="32.5589148" lon="35.0920299">
        <ele>177.67969762986428</ele>
        <time>2026-06-10T14:24:57.281Z</time>
      </trkpt>
      <trkpt lat="32.5590503" lon="35.0917552">
        <ele>177.98847983202333</ele>
        <time>2026-06-10T14:24:58.281Z</time>
      </trkpt>
      <trkpt lat="32.5591451" lon="35.0914742">
        <ele>177.73621980996816</ele>
        <time>2026-06-10T14:24:59.281Z</time>
      </trkpt>
      <trkpt lat="32.5591893" lon="35.0911679">
        <ele>176.56989757677178</ele>
        <time>2026-06-10T14:25:00.281Z</time>
      </trkpt>
      <trkpt lat="32.5591878" lon="35.0908762">
        <ele>175.53163652150903</ele>
        <time>2026-06-10T14:25:01.281Z</time>
      </trkpt>
      <trkpt lat="32.5592436" lon="35.0906144">
        <ele>172.78298635075865</ele>
        <time>2026-06-10T14:25:02.281Z</time>
      </trkpt>
      <trkpt lat="32.5593226" lon="35.0903553">
        <ele>171.2343273273186</ele>
        <time>2026-06-10T14:25:03.281Z</time>
      </trkpt>
      <trkpt lat="32.5594457" lon="35.0901223">
        <ele>170.4322571582364</ele>
        <time>2026-06-10T14:25:04.281Z</time>
      </trkpt>
      <trkpt lat="32.5595707" lon="35.0898937">
        <ele>168.52272480012195</ele>
        <time>2026-06-10T14:25:05.281Z</time>
      </trkpt>
      <trkpt lat="32.5596755" lon="35.089651">
        <ele>166.85269648102587</ele>
        <time>2026-06-10T14:25:06.281Z</time>
      </trkpt>
      <trkpt lat="32.5600419" lon="35.089429">
        <ele>165.52760545279543</ele>
        <time>2026-06-10T14:25:07.281Z</time>
      </trkpt>
      <trkpt lat="32.5602746" lon="35.0893633">
        <ele>165.06109139698052</ele>
        <time>2026-06-10T14:25:08.281Z</time>
      </trkpt>
      <trkpt lat="32.5604953" lon="35.0892471">
        <ele>164.27126870974428</ele>
        <time>2026-06-10T14:25:09.281Z</time>
      </trkpt>
      <trkpt lat="32.560742" lon="35.0892625">
        <ele>167.06175920971046</ele>
        <time>2026-06-10T14:25:10.281Z</time>
      </trkpt>
      <trkpt lat="32.5609226" lon="35.0890972">
        <ele>172.66429834841637</ele>
        <time>2026-06-10T14:25:11.281Z</time>
      </trkpt>
      <trkpt lat="32.5609119" lon="35.0888089">
        <ele>174.14058970322216</ele>
        <time>2026-06-10T14:25:12.281Z</time>
      </trkpt>
      <trkpt lat="32.5608536" lon="35.0885346">
        <ele>173.4366314047866</ele>
        <time>2026-06-10T14:25:13.281Z</time>
      </trkpt>
      <trkpt lat="32.5608465" lon="35.0882569">
        <ele>173.69897185736042</ele>
        <time>2026-06-10T14:25:14.281Z</time>
      </trkpt>
      <trkpt lat="32.560875" lon="35.0879919">
        <ele>171.33196003509372</ele>
        <time>2026-06-10T14:25:15.281Z</time>
      </trkpt>
      <trkpt lat="32.5609111" lon="35.0877166">
        <ele>168.35264985789033</ele>
        <time>2026-06-10T14:25:16.281Z</time>
      </trkpt>
      <trkpt lat="32.5609435" lon="35.0874429">
        <ele>166.19596640100002</ele>
        <time>2026-06-10T14:25:17.281Z</time>
      </trkpt>
      <trkpt lat="32.5610554" lon="35.0872012">
        <ele>165.4879350951946</ele>
        <time>2026-06-10T14:25:18.281Z</time>
      </trkpt>
      <trkpt lat="32.5611582" lon="35.0869478">
        <ele>165.44811368263566</ele>
        <time>2026-06-10T14:25:19.281Z</time>
      </trkpt>
      <trkpt lat="32.5612635" lon="35.0866818">
        <ele>165.34024709430773</ele>
        <time>2026-06-10T14:25:20.281Z</time>
      </trkpt>
      <trkpt lat="32.5614146" lon="35.0864516">
        <ele>166.4975438566842</ele>
        <time>2026-06-10T14:25:21.281Z</time>
      </trkpt>
      <trkpt lat="32.561564" lon="35.0862491">
        <ele>167.24077475833633</ele>
        <time>2026-06-10T14:25:22.281Z</time>
      </trkpt>
      <trkpt lat="32.5617174" lon="35.0860194">
        <ele>167.80011761736014</ele>
        <time>2026-06-10T14:25:23.281Z</time>
      </trkpt>
      <trkpt lat="32.5618532" lon="35.0857889">
        <ele>165.96876956821467</ele>
        <time>2026-06-10T14:25:24.281Z</time>
      </trkpt>
      <trkpt lat="32.5619459" lon="35.0855384">
        <ele>164.39429901178127</ele>
        <time>2026-06-10T14:25:25.281Z</time>
      </trkpt>
      <trkpt lat="32.5620176" lon="35.0852815">
        <ele>164.18491381245647</ele>
        <time>2026-06-10T14:25:26.281Z</time>
      </trkpt>
      <trkpt lat="32.5621489" lon="35.0850632">
        <ele>165.1763113028982</ele>
        <time>2026-06-10T14:25:27.281Z</time>
      </trkpt>
      <trkpt lat="32.5622791" lon="35.0848435">
        <ele>167.61973913377938</ele>
        <time>2026-06-10T14:25:28.281Z</time>
      </trkpt>
      <trkpt lat="32.5623429" lon="35.0845775">
        <ele>169.02316093565975</ele>
        <time>2026-06-10T14:25:29.281Z</time>
      </trkpt>
      <trkpt lat="32.5623704" lon="35.0843065">
        <ele>168.80952356337033</ele>
        <time>2026-06-10T14:25:30.281Z</time>
      </trkpt>
      <trkpt lat="32.5624171" lon="35.0840444">
        <ele>167.9405495602235</ele>
        <time>2026-06-10T14:25:31.281Z</time>
      </trkpt>
      <trkpt lat="32.5624829" lon="35.0837565">
        <ele>167.22359812567086</ele>
        <time>2026-06-10T14:25:32.281Z</time>
      </trkpt>
      <trkpt lat="32.5625391" lon="35.0834962">
        <ele>166.9594149709422</ele>
        <time>2026-06-10T14:25:33.281Z</time>
      </trkpt>
      <trkpt lat="32.5626074" lon="35.0832386">
        <ele>166.64190771345665</ele>
        <time>2026-06-10T14:25:34.281Z</time>
      </trkpt>
      <trkpt lat="32.5626913" lon="35.0829749">
        <ele>167.12405917225755</ele>
        <time>2026-06-10T14:25:35.281Z</time>
      </trkpt>
      <trkpt lat="32.5627701" lon="35.0827105">
        <ele>167.32396792655896</ele>
        <time>2026-06-10T14:25:36.281Z</time>
      </trkpt>
      <trkpt lat="32.5628616" lon="35.0824427">
        <ele>167.40964609858804</ele>
        <time>2026-06-10T14:25:37.281Z</time>
      </trkpt>
      <trkpt lat="32.5629684" lon="35.0821899">
        <ele>166.75470002014887</ele>
        <time>2026-06-10T14:25:38.281Z</time>
      </trkpt>
      <trkpt lat="32.5631065" lon="35.0819483">
        <ele>167.27426789058643</ele>
        <time>2026-06-10T14:25:39.281Z</time>
      </trkpt>
      <trkpt lat="32.563247" lon="35.0817292">
        <ele>165.84093356326005</ele>
        <time>2026-06-10T14:25:40.281Z</time>
      </trkpt>
      <trkpt lat="32.5634472" lon="35.0816006">
        <ele>164.67680673345063</ele>
        <time>2026-06-10T14:25:41.281Z</time>
      </trkpt>
      <trkpt lat="32.5636129" lon="35.0814121">
        <ele>162.93484157596916</ele>
        <time>2026-06-10T14:25:42.281Z</time>
      </trkpt>
      <trkpt lat="32.5636175" lon="35.0811456">
        <ele>160.6049565501905</ele>
        <time>2026-06-10T14:25:43.281Z</time>
      </trkpt>
      <trkpt lat="32.5636748" lon="35.080887">
        <ele>159.84962121507587</ele>
        <time>2026-06-10T14:25:44.281Z</time>
      </trkpt>
      <trkpt lat="32.5636857" lon="35.0806154">
        <ele>157.66876036132564</ele>
        <time>2026-06-10T14:25:45.281Z</time>
      </trkpt>
      <trkpt lat="32.5634488" lon="35.0805448">
        <ele>158.98764572106802</ele>
        <time>2026-06-10T14:25:46.281Z</time>
      </trkpt>
      <trkpt lat="32.5631334" lon="35.0805498">
        <ele>162.07583575858527</ele>
        <time>2026-06-10T14:25:47.281Z</time>
      </trkpt>
      <trkpt lat="32.5628781" lon="35.0805573">
        <ele>163.9498626386425</ele>
        <time>2026-06-10T14:25:48.281Z</time>
      </trkpt>
      <trkpt lat="32.5626269" lon="35.0805704">
        <ele>164.26295287606837</ele>
        <time>2026-06-10T14:25:49.281Z</time>
      </trkpt>
      <trkpt lat="32.5623858" lon="35.0805842">
        <ele>164.04211251367042</ele>
        <time>2026-06-10T14:25:50.281Z</time>
      </trkpt>
      <trkpt lat="32.5620623" lon="35.0806041">
        <ele>162.23542234523893</ele>
        <time>2026-06-10T14:25:51.281Z</time>
      </trkpt>
      <trkpt lat="32.5617868" lon="35.080624">
        <ele>161.28496265506348</ele>
        <time>2026-06-10T14:25:52.281Z</time>
      </trkpt>
      <trkpt lat="32.5615061" lon="35.080636">
        <ele>158.51852101917348</ele>
        <time>2026-06-10T14:25:53.281Z</time>
      </trkpt>
      <trkpt lat="32.5613286" lon="35.0804605">
        <ele>155.74852176612447</ele>
        <time>2026-06-10T14:25:54.281Z</time>
      </trkpt>
      <trkpt lat="32.5612043" lon="35.0802372">
        <ele>155.67060880392827</ele>
        <time>2026-06-10T14:25:55.281Z</time>
      </trkpt>
      <trkpt lat="32.5613474" lon="35.0797609">
        <ele>147.42569973560992</ele>
        <time>2026-06-10T14:25:56.281Z</time>
      </trkpt>
      <trkpt lat="32.5614129" lon="35.079473">
        <ele>147.1830649691774</ele>
        <time>2026-06-10T14:25:57.281Z</time>
      </trkpt>
      <trkpt lat="32.5615094" lon="35.0792201">
        <ele>146.93463862247697</ele>
        <time>2026-06-10T14:25:58.281Z</time>
      </trkpt>
      <trkpt lat="32.5616345" lon="35.0789921">
        <ele>147.3782202525515</ele>
        <time>2026-06-10T14:25:59.281Z</time>
      </trkpt>
      <trkpt lat="32.5617898" lon="35.0787591">
        <ele>146.9109862140027</ele>
        <time>2026-06-10T14:26:00.281Z</time>
      </trkpt>
      <trkpt lat="32.561949" lon="35.0785297">
        <ele>146.52948685970657</ele>
        <time>2026-06-10T14:26:01.281Z</time>
      </trkpt>
      <trkpt lat="32.5621004" lon="35.0783275">
        <ele>145.70672607421875</ele>
        <time>2026-06-10T14:26:02.281Z</time>
      </trkpt>
      <trkpt lat="32.5622426" lon="35.0780844">
        <ele>145.8593766971393</ele>
        <time>2026-06-10T14:26:03.281Z</time>
      </trkpt>
      <trkpt lat="32.5623937" lon="35.0778374">
        <ele>144.4623261661078</ele>
        <time>2026-06-10T14:26:04.281Z</time>
      </trkpt>
      <trkpt lat="32.5625719" lon="35.077672">
        <ele>143.9490671094</ele>
        <time>2026-06-10T14:26:05.281Z</time>
      </trkpt>
      <trkpt lat="32.5627477" lon="35.077453">
        <ele>145.35360564657273</ele>
        <time>2026-06-10T14:26:06.281Z</time>
      </trkpt>
      <trkpt lat="32.5628981" lon="35.0772265">
        <ele>144.73326771824296</ele>
        <time>2026-06-10T14:26:07.281Z</time>
      </trkpt>
      <trkpt lat="32.5630557" lon="35.0770006">
        <ele>145.00753959627164</ele>
        <time>2026-06-10T14:26:08.281Z</time>
      </trkpt>
      <trkpt lat="32.5631912" lon="35.076777">
        <ele>144.70755998205857</ele>
        <time>2026-06-10T14:26:09.281Z</time>
      </trkpt>
      <trkpt lat="32.5633233" lon="35.0765466">
        <ele>143.75795225335384</ele>
        <time>2026-06-10T14:26:10.281Z</time>
      </trkpt>
      <trkpt lat="32.5634658" lon="35.0763376">
        <ele>143.98827330501382</ele>
        <time>2026-06-10T14:26:11.281Z</time>
      </trkpt>
      <trkpt lat="32.5636158" lon="35.0761093">
        <ele>143.47825528938054</ele>
        <time>2026-06-10T14:26:12.281Z</time>
      </trkpt>
      <trkpt lat="32.5637569" lon="35.0758332">
        <ele>142.01166119410905</ele>
        <time>2026-06-10T14:26:13.281Z</time>
      </trkpt>
      <trkpt lat="32.563852" lon="35.0755579">
        <ele>142.13938770469798</ele>
        <time>2026-06-10T14:26:14.281Z</time>
      </trkpt>
      <trkpt lat="32.5638905" lon="35.0752531">
        <ele>142.18200632547573</ele>
        <time>2026-06-10T14:26:15.281Z</time>
      </trkpt>
      <trkpt lat="32.56391" lon="35.074973">
        <ele>141.8601165491117</ele>
        <time>2026-06-10T14:26:16.281Z</time>
      </trkpt>
      <trkpt lat="32.5639412" lon="35.0747011">
        <ele>141.6402453715373</ele>
        <time>2026-06-10T14:26:17.281Z</time>
      </trkpt>
      <trkpt lat="32.5639567" lon="35.0744149">
        <ele>141.2316221078073</ele>
        <time>2026-06-10T14:26:18.281Z</time>
      </trkpt>
      <trkpt lat="32.5639739" lon="35.0741453">
        <ele>140.92558571304184</ele>
        <time>2026-06-10T14:26:19.281Z</time>
      </trkpt>
      <trkpt lat="32.5639806" lon="35.073835">
        <ele>141.44284377241968</ele>
        <time>2026-06-10T14:26:20.281Z</time>
      </trkpt>
      <trkpt lat="32.5639743" lon="35.0735279">
        <ele>141.13579570271625</ele>
        <time>2026-06-10T14:26:21.281Z</time>
      </trkpt>
      <trkpt lat="32.5639884" lon="35.0731989">
        <ele>140.43995602245877</ele>
        <time>2026-06-10T14:26:22.281Z</time>
      </trkpt>
      <trkpt lat="32.5639921" lon="35.0729159">
        <ele>140.05153676395258</ele>
        <time>2026-06-10T14:26:23.281Z</time>
      </trkpt>
      <trkpt lat="32.5639954" lon="35.072612">
        <ele>139.7905557507807</ele>
        <time>2026-06-10T14:26:24.281Z</time>
      </trkpt>
      <trkpt lat="32.5639808" lon="35.0723107">
        <ele>138.79859148295543</ele>
        <time>2026-06-10T14:26:25.281Z</time>
      </trkpt>
      <trkpt lat="32.5639038" lon="35.072045">
        <ele>138.38664192966561</ele>
        <time>2026-06-10T14:26:26.281Z</time>
      </trkpt>
      <trkpt lat="32.5637612" lon="35.0718317">
        <ele>137.92625692024745</ele>
        <time>2026-06-10T14:26:27.281Z</time>
      </trkpt>
      <trkpt lat="32.5635698" lon="35.0716731">
        <ele>138.438294676703</ele>
        <time>2026-06-10T14:26:28.281Z</time>
      </trkpt>
      <trkpt lat="32.5634032" lon="35.07146">
        <ele>138.12236790774685</ele>
        <time>2026-06-10T14:26:29.281Z</time>
      </trkpt>
      <trkpt lat="32.5632886" lon="35.0712018">
        <ele>137.93540687834536</ele>
        <time>2026-06-10T14:26:30.281Z</time>
      </trkpt>
      <trkpt lat="32.5632452" lon="35.0708923">
        <ele>137.395968426014</ele>
        <time>2026-06-10T14:26:31.281Z</time>
      </trkpt>
      <trkpt lat="32.5632388" lon="35.0705905">
        <ele>137.8259408575579</ele>
        <time>2026-06-10T14:26:32.281Z</time>
      </trkpt>
      <trkpt lat="32.5632347" lon="35.0702955">
        <ele>137.24145946858692</ele>
        <time>2026-06-10T14:26:33.281Z</time>
      </trkpt>
      <trkpt lat="32.5632228" lon="35.0700196">
        <ele>137.1524535702184</ele>
        <time>2026-06-10T14:26:34.281Z</time>
      </trkpt>
      <trkpt lat="32.5632133" lon="35.0697478">
        <ele>136.54241858160975</ele>
        <time>2026-06-10T14:26:35.281Z</time>
      </trkpt>
      <trkpt lat="32.5632054" lon="35.0694541">
        <ele>136.92175439692312</ele>
        <time>2026-06-10T14:26:36.281Z</time>
      </trkpt>
      <trkpt lat="32.5631999" lon="35.0691503">
        <ele>135.91644835360043</ele>
        <time>2026-06-10T14:26:37.281Z</time>
      </trkpt>
      <trkpt lat="32.563186" lon="35.0688773">
        <ele>135.56175114959848</ele>
        <time>2026-06-10T14:26:38.281Z</time>
      </trkpt>
      <trkpt lat="32.5632312" lon="35.0685627">
        <ele>135.17234516947943</ele>
        <time>2026-06-10T14:26:39.281Z</time>
      </trkpt>
      <trkpt lat="32.5632652" lon="35.068239">
        <ele>134.13580087972645</ele>
        <time>2026-06-10T14:26:40.281Z</time>
      </trkpt>
      <trkpt lat="32.5632897" lon="35.0679325">
        <ele>133.44440945962913</ele>
        <time>2026-06-10T14:26:41.281Z</time>
      </trkpt>
      <trkpt lat="32.5633682" lon="35.0676586">
        <ele>132.7801151770853</ele>
        <time>2026-06-10T14:26:42.281Z</time>
      </trkpt>
      <trkpt lat="32.5634887" lon="35.0674201">
        <ele>131.70758699668363</ele>
        <time>2026-06-10T14:26:43.281Z</time>
      </trkpt>
      <trkpt lat="32.5636193" lon="35.0671889">
        <ele>131.45700045112017</ele>
        <time>2026-06-10T14:26:44.281Z</time>
      </trkpt>
      <trkpt lat="32.5637771" lon="35.0669562">
        <ele>131.4509940035124</ele>
        <time>2026-06-10T14:26:45.281Z</time>
      </trkpt>
      <trkpt lat="32.5638881" lon="35.0667231">
        <ele>131.15087890625</ele>
        <time>2026-06-10T14:26:46.281Z</time>
      </trkpt>
      <trkpt lat="32.5639758" lon="35.0664453">
        <ele>130.91996933540588</ele>
        <time>2026-06-10T14:26:47.281Z</time>
      </trkpt>
      <trkpt lat="32.5640024" lon="35.0661465">
        <ele>130.59869064616004</ele>
        <time>2026-06-10T14:26:48.281Z</time>
      </trkpt>
      <trkpt lat="32.5639785" lon="35.0658771">
        <ele>130.4874231242041</ele>
        <time>2026-06-10T14:26:49.281Z</time>
      </trkpt>
      <trkpt lat="32.5641056" lon="35.0656318">
        <ele>130.32131971287583</ele>
        <time>2026-06-10T14:26:50.281Z</time>
      </trkpt>
      <trkpt lat="32.5642569" lon="35.06542">
        <ele>131.04404908395395</ele>
        <time>2026-06-10T14:26:51.281Z</time>
      </trkpt>
      <trkpt lat="32.564339" lon="35.0651601">
        <ele>131.69906942286923</ele>
        <time>2026-06-10T14:26:52.281Z</time>
      </trkpt>
      <trkpt lat="32.5643295" lon="35.0648735">
        <ele>130.70419327956833</ele>
        <time>2026-06-10T14:26:53.281Z</time>
      </trkpt>
      <trkpt lat="32.5644375" lon="35.0646152">
        <ele>129.7475444945713</ele>
        <time>2026-06-10T14:26:54.281Z</time>
      </trkpt>
      <trkpt lat="32.5644002" lon="35.0640706">
        <ele>129.68817536178588</ele>
        <time>2026-06-10T14:26:55.281Z</time>
      </trkpt>
      <trkpt lat="32.5644105" lon="35.0638028">
        <ele>129.61950840343732</ele>
        <time>2026-06-10T14:26:56.281Z</time>
      </trkpt>
      <trkpt lat="32.5644107" lon="35.063536">
        <ele>129.10686532680234</ele>
        <time>2026-06-10T14:26:57.281Z</time>
      </trkpt>
      <trkpt lat="32.5644186" lon="35.0632644">
        <ele>128.23996628274756</ele>
        <time>2026-06-10T14:26:58.281Z</time>
      </trkpt>
      <trkpt lat="32.5644152" lon="35.0629824">
        <ele>128.23776809554647</ele>
        <time>2026-06-10T14:26:59.281Z</time>
      </trkpt>
      <trkpt lat="32.5643978" lon="35.0626848">
        <ele>127.28526886447864</ele>
        <time>2026-06-10T14:27:00.281Z</time>
      </trkpt>
      <trkpt lat="32.5644433" lon="35.0623997">
        <ele>127.3420483584898</ele>
        <time>2026-06-10T14:27:01.281Z</time>
      </trkpt>
      <trkpt lat="32.5644366" lon="35.062127">
        <ele>127.95159847068086</ele>
        <time>2026-06-10T14:27:02.281Z</time>
      </trkpt>
      <trkpt lat="32.5644503" lon="35.0618239">
        <ele>127.05336820039014</ele>
        <time>2026-06-10T14:27:03.281Z</time>
      </trkpt>
      <trkpt lat="32.5644034" lon="35.0615522">
        <ele>126.68279276075398</ele>
        <time>2026-06-10T14:27:04.281Z</time>
      </trkpt>
      <trkpt lat="32.5643399" lon="35.0612958">
        <ele>126.40098715724113</ele>
        <time>2026-06-10T14:27:05.281Z</time>
      </trkpt>
      <trkpt lat="32.5642604" lon="35.06103">
        <ele>125.80255443630998</ele>
        <time>2026-06-10T14:27:06.281Z</time>
      </trkpt>
      <trkpt lat="32.5641944" lon="35.060769">
        <ele>126.42940667422789</ele>
        <time>2026-06-10T14:27:07.281Z</time>
      </trkpt>
      <trkpt lat="32.5641608" lon="35.0604901">
        <ele>125.71703859771502</ele>
        <time>2026-06-10T14:27:08.281Z</time>
      </trkpt>
      <trkpt lat="32.5641715" lon="35.0602058">
        <ele>125.78086104316156</ele>
        <time>2026-06-10T14:27:09.281Z</time>
      </trkpt>
      <trkpt lat="32.5642072" lon="35.0599256">
        <ele>126.0028008364063</ele>
        <time>2026-06-10T14:27:10.281Z</time>
      </trkpt>
      <trkpt lat="32.5642545" lon="35.0596483">
        <ele>126.62897422336191</ele>
        <time>2026-06-10T14:27:11.281Z</time>
      </trkpt>
      <trkpt lat="32.564299" lon="35.0593593">
        <ele>126.3881756268437</ele>
        <time>2026-06-10T14:27:12.281Z</time>
      </trkpt>
      <trkpt lat="32.5643534" lon="35.059094">
        <ele>124.61916032178897</ele>
        <time>2026-06-10T14:27:13.281Z</time>
      </trkpt>
      <trkpt lat="32.5644592" lon="35.0588473">
        <ele>124.01932658650338</ele>
        <time>2026-06-10T14:27:14.281Z</time>
      </trkpt>
      <trkpt lat="32.5645566" lon="35.058575">
        <ele>123.63687255043962</ele>
        <time>2026-06-10T14:27:15.281Z</time>
      </trkpt>
      <trkpt lat="32.5645557" lon="35.0583013">
        <ele>124.16474703497654</ele>
        <time>2026-06-10T14:27:16.281Z</time>
      </trkpt>
      <trkpt lat="32.5645535" lon="35.0580154">
        <ele>123.44388057779369</ele>
        <time>2026-06-10T14:27:17.281Z</time>
      </trkpt>
      <trkpt lat="32.5645622" lon="35.0577312">
        <ele>123.80874949992133</ele>
        <time>2026-06-10T14:27:18.281Z</time>
      </trkpt>
      <trkpt lat="32.5644514" lon="35.0574782">
        <ele>123.26863214017463</ele>
        <time>2026-06-10T14:27:19.281Z</time>
      </trkpt>
      <trkpt lat="32.5643057" lon="35.0572232">
        <ele>122.74094580413369</ele>
        <time>2026-06-10T14:27:20.281Z</time>
      </trkpt>
      <trkpt lat="32.5641631" lon="35.0570009">
        <ele>122.60596649667116</ele>
        <time>2026-06-10T14:27:21.281Z</time>
      </trkpt>
      <trkpt lat="32.5640476" lon="35.0567622">
        <ele>122.2428656007775</ele>
        <time>2026-06-10T14:27:22.281Z</time>
      </trkpt>
      <trkpt lat="32.5639618" lon="35.0564666">
        <ele>122.09882229406826</ele>
        <time>2026-06-10T14:27:23.281Z</time>
      </trkpt>
      <trkpt lat="32.5639038" lon="35.0561981">
        <ele>121.60205922270849</ele>
        <time>2026-06-10T14:27:24.281Z</time>
      </trkpt>
      <trkpt lat="32.5638671" lon="35.0559087">
        <ele>121.57911366119085</ele>
        <time>2026-06-10T14:27:25.281Z</time>
      </trkpt>
      <trkpt lat="32.5638108" lon="35.0556292">
        <ele>121.40683115709543</ele>
        <time>2026-06-10T14:27:26.281Z</time>
      </trkpt>
      <trkpt lat="32.563734" lon="35.055362">
        <ele>120.86848350987202</ele>
        <time>2026-06-10T14:27:27.281Z</time>
      </trkpt>
      <trkpt lat="32.5636466" lon="35.0550895">
        <ele>120.99118895397172</ele>
        <time>2026-06-10T14:27:28.281Z</time>
      </trkpt>
      <trkpt lat="32.5636573" lon="35.0548133">
        <ele>120.54473115693575</ele>
        <time>2026-06-10T14:27:29.281Z</time>
      </trkpt>
      <trkpt lat="32.5637184" lon="35.0545528">
        <ele>120.31104253088382</ele>
        <time>2026-06-10T14:27:30.281Z</time>
      </trkpt>
      <trkpt lat="32.5638188" lon="35.0543117">
        <ele>120.19206159435659</ele>
        <time>2026-06-10T14:27:31.281Z</time>
      </trkpt>
      <trkpt lat="32.5639719" lon="35.0540542">
        <ele>119.71989455312928</ele>
        <time>2026-06-10T14:27:32.281Z</time>
      </trkpt>
      <trkpt lat="32.5641058" lon="35.0538079">
        <ele>119.36938168510963</ele>
        <time>2026-06-10T14:27:33.281Z</time>
      </trkpt>
      <trkpt lat="32.5642429" lon="35.053541">
        <ele>119.02415377115709</ele>
        <time>2026-06-10T14:27:34.281Z</time>
      </trkpt>
      <trkpt lat="32.5643538" lon="35.0532809">
        <ele>118.76512492328303</ele>
        <time>2026-06-10T14:27:35.281Z</time>
      </trkpt>
      <trkpt lat="32.5644842" lon="35.0530313">
        <ele>118.54999848198204</ele>
        <time>2026-06-10T14:27:36.281Z</time>
      </trkpt>
      <trkpt lat="32.5646156" lon="35.0527688">
        <ele>118.34263685142503</ele>
        <time>2026-06-10T14:27:37.281Z</time>
      </trkpt>
      <trkpt lat="32.5647461" lon="35.0525256">
        <ele>118.12429708816597</ele>
        <time>2026-06-10T14:27:38.281Z</time>
      </trkpt>
      <trkpt lat="32.5648802" lon="35.0522786">
        <ele>117.74689482837726</ele>
        <time>2026-06-10T14:27:39.281Z</time>
      </trkpt>
      <trkpt lat="32.5650138" lon="35.0520434">
        <ele>117.48044371720944</ele>
        <time>2026-06-10T14:27:40.281Z</time>
      </trkpt>
      <trkpt lat="32.5651589" lon="35.0517993">
        <ele>117.36313068796714</ele>
        <time>2026-06-10T14:27:41.281Z</time>
      </trkpt>
      <trkpt lat="32.5653474" lon="35.0515973">
        <ele>116.918615481254</ele>
        <time>2026-06-10T14:27:42.281Z</time>
      </trkpt>
      <trkpt lat="32.5655369" lon="35.0514226">
        <ele>116.35927091157376</ele>
        <time>2026-06-10T14:27:43.281Z</time>
      </trkpt>
      <trkpt lat="32.5657142" lon="35.0512207">
        <ele>116.43577315099307</ele>
        <time>2026-06-10T14:27:44.281Z</time>
      </trkpt>
      <trkpt lat="32.5658876" lon="35.0510228">
        <ele>115.7051192897857</ele>
        <time>2026-06-10T14:27:45.281Z</time>
      </trkpt>
      <trkpt lat="32.5661697" lon="35.0505915">
        <ele>115.2500624839555</ele>
        <time>2026-06-10T14:27:46.281Z</time>
      </trkpt>
      <trkpt lat="32.5663804" lon="35.0501033">
        <ele>114.61823467112413</ele>
        <time>2026-06-10T14:27:47.281Z</time>
      </trkpt>
      <trkpt lat="32.5664456" lon="35.0498447">
        <ele>114.3977763048015</ele>
        <time>2026-06-10T14:27:48.281Z</time>
      </trkpt>
      <trkpt lat="32.5665142" lon="35.0495734">
        <ele>114.24634707311029</ele>
        <time>2026-06-10T14:27:49.281Z</time>
      </trkpt>
      <trkpt lat="32.566576" lon="35.0492943">
        <ele>113.7177504314632</ele>
        <time>2026-06-10T14:27:50.281Z</time>
      </trkpt>
      <trkpt lat="32.5666683" lon="35.0490106">
        <ele>113.29955644903596</ele>
        <time>2026-06-10T14:27:51.281Z</time>
      </trkpt>
      <trkpt lat="32.5667342" lon="35.0487457">
        <ele>113.3894041022556</ele>
        <time>2026-06-10T14:27:52.281Z</time>
      </trkpt>
      <trkpt lat="32.5668008" lon="35.048461">
        <ele>112.57559899750748</ele>
        <time>2026-06-10T14:27:53.281Z</time>
      </trkpt>
      <trkpt lat="32.5668666" lon="35.0482014">
        <ele>112.40189269450663</ele>
        <time>2026-06-10T14:27:54.281Z</time>
      </trkpt>
      <trkpt lat="32.5669206" lon="35.0479038">
        <ele>112.1213075323482</ele>
        <time>2026-06-10T14:27:55.281Z</time>
      </trkpt>
      <trkpt lat="32.5668907" lon="35.0476247">
        <ele>111.7349482894371</ele>
        <time>2026-06-10T14:27:56.281Z</time>
      </trkpt>
      <trkpt lat="32.5668472" lon="35.0473341">
        <ele>111.68876447788503</ele>
        <time>2026-06-10T14:27:57.281Z</time>
      </trkpt>
      <trkpt lat="32.566794" lon="35.0468008">
        <ele>110.85175866980126</ele>
        <time>2026-06-10T14:27:58.281Z</time>
      </trkpt>
      <trkpt lat="32.5667883" lon="35.0465272">
        <ele>110.65314578346111</ele>
        <time>2026-06-10T14:27:59.281Z</time>
      </trkpt>
      <trkpt lat="32.5667831" lon="35.0462409">
        <ele>110.81165249909466</ele>
        <time>2026-06-10T14:28:00.281Z</time>
      </trkpt>
      <trkpt lat="32.5667749" lon="35.0459458">
        <ele>110.24288379086875</ele>
        <time>2026-06-10T14:28:01.281Z</time>
      </trkpt>
      <trkpt lat="32.5667641" lon="35.0456579">
        <ele>109.96993088158213</ele>
        <time>2026-06-10T14:28:02.281Z</time>
      </trkpt>
      <trkpt lat="32.5667544" lon="35.0453716">
        <ele>109.15437504397183</ele>
        <time>2026-06-10T14:28:03.281Z</time>
      </trkpt>
      <trkpt lat="32.5667351" lon="35.0450982">
        <ele>109.11467205409974</ele>
        <time>2026-06-10T14:28:04.281Z</time>
      </trkpt>
      <trkpt lat="32.5667187" lon="35.0448317">
        <ele>108.84607725707721</ele>
        <time>2026-06-10T14:28:05.281Z</time>
      </trkpt>
      <trkpt lat="32.5666806" lon="35.0445555">
        <ele>108.52216838856907</ele>
        <time>2026-06-10T14:28:06.281Z</time>
      </trkpt>
      <trkpt lat="32.5666421" lon="35.0442849">
        <ele>108.66618350668021</ele>
        <time>2026-06-10T14:28:07.281Z</time>
      </trkpt>
      <trkpt lat="32.566617" lon="35.0439798">
        <ele>108.03354923804021</ele>
        <time>2026-06-10T14:28:08.281Z</time>
      </trkpt>
      <trkpt lat="32.5665847" lon="35.043679">
        <ele>107.75224457928029</ele>
        <time>2026-06-10T14:28:09.281Z</time>
      </trkpt>
      <trkpt lat="32.5665769" lon="35.0433806">
        <ele>107.73117778742859</ele>
        <time>2026-06-10T14:28:10.281Z</time>
      </trkpt>
      <trkpt lat="32.5665654" lon="35.0430984">
        <ele>107.1377861443307</ele>
        <time>2026-06-10T14:28:11.281Z</time>
      </trkpt>
      <trkpt lat="32.5665634" lon="35.0428302">
        <ele>106.8615536888916</ele>
        <time>2026-06-10T14:28:12.281Z</time>
      </trkpt>
      <trkpt lat="32.5665584" lon="35.0425487">
        <ele>106.87900048921635</ele>
        <time>2026-06-10T14:28:13.281Z</time>
      </trkpt>
      <trkpt lat="32.566556" lon="35.042263">
        <ele>105.70654296875</ele>
        <time>2026-06-10T14:28:14.281Z</time>
      </trkpt>
      <trkpt lat="32.5666758" lon="35.0420367">
        <ele>105.04932096468748</ele>
        <time>2026-06-10T14:28:15.281Z</time>
      </trkpt>
      <trkpt lat="32.5666807" lon="35.0417599">
        <ele>104.72423755943721</ele>
        <time>2026-06-10T14:28:16.281Z</time>
      </trkpt>
      <trkpt lat="32.5667987" lon="35.0415065">
        <ele>104.29339731730677</ele>
        <time>2026-06-10T14:28:17.281Z</time>
      </trkpt>
      <trkpt lat="32.5668328" lon="35.0412413">
        <ele>104.50190681170162</ele>
        <time>2026-06-10T14:28:18.281Z</time>
      </trkpt>
      <trkpt lat="32.566939" lon="35.0409992">
        <ele>104.33683238484574</ele>
        <time>2026-06-10T14:28:19.281Z</time>
      </trkpt>
      <trkpt lat="32.5671782" lon="35.0410444">
        <ele>105.07659608049566</ele>
        <time>2026-06-10T14:28:20.281Z</time>
      </trkpt>
      <trkpt lat="32.5674335" lon="35.0410893">
        <ele>106.19055249504395</ele>
        <time>2026-06-10T14:28:21.281Z</time>
      </trkpt>
      <trkpt lat="32.5676819" lon="35.0411278">
        <ele>106.69084985324437</ele>
        <time>2026-06-10T14:28:22.281Z</time>
      </trkpt>
      <trkpt lat="32.5679147" lon="35.0411436">
        <ele>107.05307697008584</ele>
        <time>2026-06-10T14:28:23.281Z</time>
      </trkpt>
      <trkpt lat="32.5681656" lon="35.0411352">
        <ele>108.12389143687118</ele>
        <time>2026-06-10T14:28:24.281Z</time>
      </trkpt>
      <trkpt lat="32.5684211" lon="35.0411103">
        <ele>109.91964815723202</ele>
        <time>2026-06-10T14:28:25.281Z</time>
      </trkpt>
      <trkpt lat="32.5686685" lon="35.0411324">
        <ele>112.44991677272246</ele>
        <time>2026-06-10T14:28:26.281Z</time>
      </trkpt>
      <trkpt lat="32.5689006" lon="35.0411601">
        <ele>114.79267198452008</ele>
        <time>2026-06-10T14:28:27.281Z</time>
      </trkpt>
      <trkpt lat="32.5691452" lon="35.0411862">
        <ele>116.89934697134177</ele>
        <time>2026-06-10T14:28:28.281Z</time>
      </trkpt>
      <trkpt lat="32.5693951" lon="35.0412237">
        <ele>118.50700989516557</ele>
        <time>2026-06-10T14:28:29.281Z</time>
      </trkpt>
      <trkpt lat="32.569631" lon="35.0412468">
        <ele>120.30344413134145</ele>
        <time>2026-06-10T14:28:30.281Z</time>
      </trkpt>
      <trkpt lat="32.5698814" lon="35.0412866">
        <ele>122.5084013331607</ele>
        <time>2026-06-10T14:28:31.281Z</time>
      </trkpt>
      <trkpt lat="32.5701082" lon="35.0413131">
        <ele>124.0149576149477</ele>
        <time>2026-06-10T14:28:32.281Z</time>
      </trkpt>
      <trkpt lat="32.5703505" lon="35.0413429">
        <ele>125.47539463549829</ele>
        <time>2026-06-10T14:28:33.281Z</time>
      </trkpt>
      <trkpt lat="32.5705943" lon="35.0413721">
        <ele>127.00855471748264</ele>
        <time>2026-06-10T14:28:34.281Z</time>
      </trkpt>
      <trkpt lat="32.5708644" lon="35.0414074">
        <ele>128.45702531149297</ele>
        <time>2026-06-10T14:28:35.281Z</time>
      </trkpt>
      <trkpt lat="32.571137" lon="35.041452">
        <ele>129.50840305000213</ele>
        <time>2026-06-10T14:28:36.281Z</time>
      </trkpt>
      <trkpt lat="32.571369" lon="35.041483">
        <ele>130.4018376609693</ele>
        <time>2026-06-10T14:28:37.281Z</time>
      </trkpt>
      <trkpt lat="32.5715974" lon="35.041527">
        <ele>130.9382764051757</ele>
        <time>2026-06-10T14:28:38.281Z</time>
      </trkpt>
      <trkpt lat="32.5718577" lon="35.0415649">
        <ele>131.32884512111136</ele>
        <time>2026-06-10T14:28:39.281Z</time>
      </trkpt>
      <trkpt lat="32.5721065" lon="35.0415924">
        <ele>130.40598866774098</ele>
        <time>2026-06-10T14:28:40.281Z</time>
      </trkpt>
      <trkpt lat="32.5723435" lon="35.0416193">
        <ele>130.2615313506</ele>
        <time>2026-06-10T14:28:41.281Z</time>
      </trkpt>
      <trkpt lat="32.5725712" lon="35.04163">
        <ele>129.98125444320732</ele>
        <time>2026-06-10T14:28:42.281Z</time>
      </trkpt>
      <trkpt lat="32.572831" lon="35.0416577">
        <ele>130.16904599007853</ele>
        <time>2026-06-10T14:28:43.281Z</time>
      </trkpt>
      <trkpt lat="32.5730634" lon="35.0417037">
        <ele>130.31381247394955</ele>
        <time>2026-06-10T14:28:44.281Z</time>
      </trkpt>
      <trkpt lat="32.5732911" lon="35.041758">
        <ele>130.32451016909408</ele>
        <time>2026-06-10T14:28:45.281Z</time>
      </trkpt>
      <trkpt lat="32.573553" lon="35.0417702">
        <ele>130.39357601258217</ele>
        <time>2026-06-10T14:28:46.281Z</time>
      </trkpt>
      <trkpt lat="32.5737785" lon="35.0417901">
        <ele>130.96171554652508</ele>
        <time>2026-06-10T14:28:47.281Z</time>
      </trkpt>
      <trkpt lat="32.5740272" lon="35.0418178">
        <ele>131.43330283395244</ele>
        <time>2026-06-10T14:28:48.281Z</time>
      </trkpt>
      <trkpt lat="32.5742597" lon="35.0418488">
        <ele>132.0204192807567</ele>
        <time>2026-06-10T14:28:49.281Z</time>
      </trkpt>
      <trkpt lat="32.5744887" lon="35.041886">
        <ele>132.0733084154437</ele>
        <time>2026-06-10T14:28:50.281Z</time>
      </trkpt>
      <trkpt lat="32.5747212" lon="35.0419034">
        <ele>132.23439688868888</ele>
        <time>2026-06-10T14:28:51.281Z</time>
      </trkpt>
      <trkpt lat="32.5749551" lon="35.0419102">
        <ele>132.84785409212378</ele>
        <time>2026-06-10T14:28:52.281Z</time>
      </trkpt>
      <trkpt lat="32.5751803" lon="35.041885">
        <ele>132.64224832796924</ele>
        <time>2026-06-10T14:28:53.281Z</time>
      </trkpt>
      <trkpt lat="32.5754252" lon="35.0419822">
        <ele>132.99424772430342</ele>
        <time>2026-06-10T14:28:54.281Z</time>
      </trkpt>
      <trkpt lat="32.5756816" lon="35.0419907">
        <ele>133.3074287980876</ele>
        <time>2026-06-10T14:28:55.281Z</time>
      </trkpt>
      <trkpt lat="32.5759118" lon="35.0420066">
        <ele>133.68441634705016</ele>
        <time>2026-06-10T14:28:56.281Z</time>
      </trkpt>
      <trkpt lat="32.5761388" lon="35.0420302">
        <ele>134.74386460561124</ele>
        <time>2026-06-10T14:28:57.281Z</time>
      </trkpt>
      <trkpt lat="32.5763967" lon="35.0420911">
        <ele>136.62514889523783</ele>
        <time>2026-06-10T14:28:58.281Z</time>
      </trkpt>
      <trkpt lat="32.5766537" lon="35.0421232">
        <ele>137.78269099353264</ele>
        <time>2026-06-10T14:28:59.281Z</time>
      </trkpt>
      <trkpt lat="32.5768795" lon="35.0421273">
        <ele>138.8926415860298</ele>
        <time>2026-06-10T14:29:00.281Z</time>
      </trkpt>
      <trkpt lat="32.5771188" lon="35.0421062">
        <ele>140.42444314744262</ele>
        <time>2026-06-10T14:29:01.281Z</time>
      </trkpt>
      <trkpt lat="32.577369" lon="35.0421386">
        <ele>141.87050857819492</ele>
        <time>2026-06-10T14:29:02.281Z</time>
      </trkpt>
      <trkpt lat="32.5775729" lon="35.0422611">
        <ele>142.32554782739246</ele>
        <time>2026-06-10T14:29:03.281Z</time>
      </trkpt>
      <trkpt lat="32.5777302" lon="35.0424691">
        <ele>143.27059849624996</ele>
        <time>2026-06-10T14:29:04.281Z</time>
      </trkpt>
      <trkpt lat="32.5779303" lon="35.0426019">
        <ele>144.19633852803196</ele>
        <time>2026-06-10T14:29:05.281Z</time>
      </trkpt>
      <trkpt lat="32.5781616" lon="35.0426313">
        <ele>145.52915266398216</ele>
        <time>2026-06-10T14:29:06.281Z</time>
      </trkpt>
      <trkpt lat="32.5784007" lon="35.0426583">
        <ele>147.0382869200821</ele>
        <time>2026-06-10T14:29:07.281Z</time>
      </trkpt>
      <trkpt lat="32.5786442" lon="35.0426933">
        <ele>147.84665742570348</ele>
        <time>2026-06-10T14:29:08.281Z</time>
      </trkpt>
      <trkpt lat="32.5788768" lon="35.0427212">
        <ele>148.83093876620228</ele>
        <time>2026-06-10T14:29:09.281Z</time>
      </trkpt>
      <trkpt lat="32.5791502" lon="35.0427488">
        <ele>149.9789834408124</ele>
        <time>2026-06-10T14:29:10.281Z</time>
      </trkpt>
      <trkpt lat="32.5793925" lon="35.0427699">
        <ele>150.78010289710318</ele>
        <time>2026-06-10T14:29:11.281Z</time>
      </trkpt>
      <trkpt lat="32.5796415" lon="35.0428062">
        <ele>151.3260547044212</ele>
        <time>2026-06-10T14:29:12.281Z</time>
      </trkpt>
      <trkpt lat="32.5799066" lon="35.0428115">
        <ele>150.64287601628155</ele>
        <time>2026-06-10T14:29:13.281Z</time>
      </trkpt>
      <trkpt lat="32.5801558" lon="35.0428739">
        <ele>148.9034898532738</ele>
        <time>2026-06-10T14:29:14.281Z</time>
      </trkpt>
      <trkpt lat="32.5803523" lon="35.0427422">
        <ele>147.16426526676872</ele>
        <time>2026-06-10T14:29:15.281Z</time>
      </trkpt>
      <trkpt lat="32.5805492" lon="35.0426111">
        <ele>145.53275872928964</ele>
        <time>2026-06-10T14:29:16.281Z</time>
      </trkpt>
      <trkpt lat="32.5807908" lon="35.0425353">
        <ele>143.99152425730443</ele>
        <time>2026-06-10T14:29:17.281Z</time>
      </trkpt>
      <trkpt lat="32.5810184" lon="35.0425405">
        <ele>141.89838422110813</ele>
        <time>2026-06-10T14:29:18.281Z</time>
      </trkpt>
      <trkpt lat="32.5812633" lon="35.0425959">
        <ele>139.04349337936134</ele>
        <time>2026-06-10T14:29:19.281Z</time>
      </trkpt>
      <trkpt lat="32.5815031" lon="35.0426386">
        <ele>137.0579549078882</ele>
        <time>2026-06-10T14:29:20.281Z</time>
      </trkpt>
      <trkpt lat="32.5817462" lon="35.0426746">
        <ele>135.24738427502842</ele>
        <time>2026-06-10T14:29:21.281Z</time>
      </trkpt>
      <trkpt lat="32.5819944" lon="35.0426714">
        <ele>133.5075338399938</ele>
        <time>2026-06-10T14:29:22.281Z</time>
      </trkpt>
      <trkpt lat="32.5822046" lon="35.0427707">
        <ele>131.42278450247977</ele>
        <time>2026-06-10T14:29:23.281Z</time>
      </trkpt>
      <trkpt lat="32.5824122" lon="35.0429083">
        <ele>128.5369895863177</ele>
        <time>2026-06-10T14:29:24.281Z</time>
      </trkpt>
      <trkpt lat="32.5826293" lon="35.0430689">
        <ele>126.26732894960693</ele>
        <time>2026-06-10T14:29:25.281Z</time>
      </trkpt>
      <trkpt lat="32.5828277" lon="35.0432044">
        <ele>124.2879486383441</ele>
        <time>2026-06-10T14:29:26.281Z</time>
      </trkpt>
      <trkpt lat="32.5830413" lon="35.0433134">
        <ele>122.7077533250163</ele>
        <time>2026-06-10T14:29:27.281Z</time>
      </trkpt>
      <trkpt lat="32.583255" lon="35.0434902">
        <ele>121.26435178487321</ele>
        <time>2026-06-10T14:29:28.281Z</time>
      </trkpt>
      <trkpt lat="32.5834234" lon="35.043698">
        <ele>120.13982266351213</ele>
        <time>2026-06-10T14:29:29.281Z</time>
      </trkpt>
      <trkpt lat="32.5835387" lon="35.0439376">
        <ele>119.09566885646508</ele>
        <time>2026-06-10T14:29:30.281Z</time>
      </trkpt>
      <trkpt lat="32.5836916" lon="35.0441565">
        <ele>119.36547073926168</ele>
        <time>2026-06-10T14:29:31.281Z</time>
      </trkpt>
      <trkpt lat="32.5838095" lon="35.0443872">
        <ele>120.41815810942359</ele>
        <time>2026-06-10T14:29:32.281Z</time>
      </trkpt>
      <trkpt lat="32.5839419" lon="35.0446071">
        <ele>121.38023847386971</ele>
        <time>2026-06-10T14:29:33.281Z</time>
      </trkpt>
      <trkpt lat="32.5840626" lon="35.0448557">
        <ele>123.92364909380235</ele>
        <time>2026-06-10T14:29:34.281Z</time>
      </trkpt>
      <trkpt lat="32.5841575" lon="35.0451021">
        <ele>125.86638605718034</ele>
        <time>2026-06-10T14:29:35.281Z</time>
      </trkpt>
      <trkpt lat="32.5843158" lon="35.0452925">
        <ele>127.98528233109873</ele>
        <time>2026-06-10T14:29:36.281Z</time>
      </trkpt>
      <trkpt lat="32.5844419" lon="35.045541">
        <ele>130.72366506612363</ele>
        <time>2026-06-10T14:29:37.281Z</time>
      </trkpt>
      <trkpt lat="32.5845497" lon="35.0458059">
        <ele>132.66303587233892</ele>
        <time>2026-06-10T14:29:38.281Z</time>
      </trkpt>
      <trkpt lat="32.5846899" lon="35.0460276">
        <ele>134.77739589762967</ele>
        <time>2026-06-10T14:29:39.281Z</time>
      </trkpt>
      <trkpt lat="32.5848288" lon="35.0462494">
        <ele>136.627161095686</ele>
        <time>2026-06-10T14:29:40.281Z</time>
      </trkpt>
      <trkpt lat="32.5849605" lon="35.0464868">
        <ele>137.28781001170756</ele>
        <time>2026-06-10T14:29:41.281Z</time>
      </trkpt>
      <trkpt lat="32.5851012" lon="35.0467198">
        <ele>137.7350896385848</ele>
        <time>2026-06-10T14:29:42.281Z</time>
      </trkpt>
      <trkpt lat="32.5852403" lon="35.0469561">
        <ele>137.82094616906932</ele>
        <time>2026-06-10T14:29:43.281Z</time>
      </trkpt>
      <trkpt lat="32.5853806" lon="35.0471727">
        <ele>136.5340569449979</ele>
        <time>2026-06-10T14:29:44.281Z</time>
      </trkpt>
      <trkpt lat="32.5855283" lon="35.0474031">
        <ele>134.45304139291193</ele>
        <time>2026-06-10T14:29:45.281Z</time>
      </trkpt>
      <trkpt lat="32.5857166" lon="35.0476009">
        <ele>132.75421600520167</ele>
        <time>2026-06-10T14:29:46.281Z</time>
      </trkpt>
      <trkpt lat="32.5857982" lon="35.0478664">
        <ele>129.52480030257516</ele>
        <time>2026-06-10T14:29:47.281Z</time>
      </trkpt>
      <trkpt lat="32.5859618" lon="35.0480677">
        <ele>125.70757153665737</ele>
        <time>2026-06-10T14:29:48.281Z</time>
      </trkpt>
      <trkpt lat="32.5861249" lon="35.048294">
        <ele>124.3042761114493</ele>
        <time>2026-06-10T14:29:49.281Z</time>
      </trkpt>
      <trkpt lat="32.5863017" lon="35.0484876">
        <ele>123.58091506560197</ele>
        <time>2026-06-10T14:29:50.281Z</time>
      </trkpt>
      <trkpt lat="32.5864087" lon="35.0487236">
        <ele>124.35316930958528</ele>
        <time>2026-06-10T14:29:51.281Z</time>
      </trkpt>
      <trkpt lat="32.5865601" lon="35.0492266">
        <ele>125.43628502424505</ele>
        <time>2026-06-10T14:29:52.281Z</time>
      </trkpt>
      <trkpt lat="32.586702" lon="35.0494638">
        <ele>126.62046759833602</ele>
        <time>2026-06-10T14:29:53.281Z</time>
      </trkpt>
      <trkpt lat="32.5868949" lon="35.0496455">
        <ele>129.31622173559145</ele>
        <time>2026-06-10T14:29:54.281Z</time>
      </trkpt>
      <trkpt lat="32.5871026" lon="35.0497826">
        <ele>132.27836271488445</ele>
        <time>2026-06-10T14:29:55.281Z</time>
      </trkpt>
      <trkpt lat="32.5872318" lon="35.0500397">
        <ele>135.41960455682346</ele>
        <time>2026-06-10T14:29:56.281Z</time>
      </trkpt>
      <trkpt lat="32.5872191" lon="35.0503138">
        <ele>136.6491358144068</ele>
        <time>2026-06-10T14:29:57.281Z</time>
      </trkpt>
      <trkpt lat="32.5872225" lon="35.0506096">
        <ele>137.88176001059392</ele>
        <time>2026-06-10T14:29:58.281Z</time>
      </trkpt>
      <trkpt lat="32.5872007" lon="35.0508923">
        <ele>138.0200223495625</ele>
        <time>2026-06-10T14:29:59.281Z</time>
      </trkpt>
      <trkpt lat="32.5871876" lon="35.0511928">
        <ele>138.30466061028213</ele>
        <time>2026-06-10T14:30:00.281Z</time>
      </trkpt>
      <trkpt lat="32.5872428" lon="35.0514915">
        <ele>138.66167472336053</ele>
        <time>2026-06-10T14:30:01.281Z</time>
      </trkpt>
      <trkpt lat="32.587334" lon="35.0517722">
        <ele>139.44945849318583</ele>
        <time>2026-06-10T14:30:02.281Z</time>
      </trkpt>
      <trkpt lat="32.587417" lon="35.0520304">
        <ele>139.76703606187692</ele>
        <time>2026-06-10T14:30:03.281Z</time>
      </trkpt>
      <trkpt lat="32.5874803" lon="35.0522948">
        <ele>140.00065103332315</ele>
        <time>2026-06-10T14:30:04.281Z</time>
      </trkpt>
      <trkpt lat="32.5875518" lon="35.0525789">
        <ele>140.7382652676568</ele>
        <time>2026-06-10T14:30:05.281Z</time>
      </trkpt>
      <trkpt lat="32.5876292" lon="35.0528326">
        <ele>141.1409038478261</ele>
        <time>2026-06-10T14:30:06.281Z</time>
      </trkpt>
      <trkpt lat="32.5877267" lon="35.0531123">
        <ele>141.51713295753922</ele>
        <time>2026-06-10T14:30:07.281Z</time>
      </trkpt>
      <trkpt lat="32.5878015" lon="35.0533929">
        <ele>141.89067671429984</ele>
        <time>2026-06-10T14:30:08.281Z</time>
      </trkpt>
      <trkpt lat="32.5878655" lon="35.0536815">
        <ele>141.6874897522541</ele>
        <time>2026-06-10T14:30:09.281Z</time>
      </trkpt>
      <trkpt lat="32.5879418" lon="35.0539337">
        <ele>140.93322230918633</ele>
        <time>2026-06-10T14:30:10.281Z</time>
      </trkpt>
      <trkpt lat="32.5880046" lon="35.0542005">
        <ele>139.05492160619485</ele>
        <time>2026-06-10T14:30:11.281Z</time>
      </trkpt>
      <trkpt lat="32.5879492" lon="35.0544939">
        <ele>137.12111237837587</ele>
        <time>2026-06-10T14:30:12.281Z</time>
      </trkpt>
      <trkpt lat="32.5878048" lon="35.0547596">
        <ele>136.77500891318402</ele>
        <time>2026-06-10T14:30:13.281Z</time>
      </trkpt>
      <trkpt lat="32.5876886" lon="35.055029">
        <ele>136.228901589972</ele>
        <time>2026-06-10T14:30:14.281Z</time>
      </trkpt>
      <trkpt lat="32.5877595" lon="35.0553159">
        <ele>135.9636339366062</ele>
        <time>2026-06-10T14:30:15.281Z</time>
      </trkpt>
      <trkpt lat="32.5876931" lon="35.0556198">
        <ele>136.03242913339744</ele>
        <time>2026-06-10T14:30:16.281Z</time>
      </trkpt>
      <trkpt lat="32.5876939" lon="35.0559043">
        <ele>135.87737644353712</ele>
        <time>2026-06-10T14:30:17.281Z</time>
      </trkpt>
      <trkpt lat="32.5875855" lon="35.0561537">
        <ele>135.8086186415162</ele>
        <time>2026-06-10T14:30:18.281Z</time>
      </trkpt>
      <trkpt lat="32.5875205" lon="35.0564117">
        <ele>136.35455577250627</ele>
        <time>2026-06-10T14:30:19.281Z</time>
      </trkpt>
      <trkpt lat="32.5876147" lon="35.0566617">
        <ele>136.8748010317091</ele>
        <time>2026-06-10T14:30:20.281Z</time>
      </trkpt>
      <trkpt lat="32.5876908" lon="35.0569574">
        <ele>137.58322179219743</ele>
        <time>2026-06-10T14:30:21.281Z</time>
      </trkpt>
      <trkpt lat="32.5878181" lon="35.057208">
        <ele>139.1408610057665</ele>
        <time>2026-06-10T14:30:22.281Z</time>
      </trkpt>
      <trkpt lat="32.5879376" lon="35.0574446">
        <ele>140.24957872418412</ele>
        <time>2026-06-10T14:30:23.281Z</time>
      </trkpt>
      <trkpt lat="32.5880477" lon="35.0577144">
        <ele>141.38115970391084</ele>
        <time>2026-06-10T14:30:24.281Z</time>
      </trkpt>
      <trkpt lat="32.5881391" lon="35.0579767">
        <ele>141.9227951197342</ele>
        <time>2026-06-10T14:30:25.281Z</time>
      </trkpt>
      <trkpt lat="32.5882877" lon="35.0582296">
        <ele>142.20003171738793</ele>
        <time>2026-06-10T14:30:26.281Z</time>
      </trkpt>
      <trkpt lat="32.5884253" lon="35.0585241">
        <ele>143.13178425073446</ele>
        <time>2026-06-10T14:30:27.281Z</time>
      </trkpt>
      <trkpt lat="32.5885478" lon="35.0587876">
        <ele>143.93743919616622</ele>
        <time>2026-06-10T14:30:28.281Z</time>
      </trkpt>
      <trkpt lat="32.5886761" lon="35.0590562">
        <ele>144.13534554631252</ele>
        <time>2026-06-10T14:30:29.281Z</time>
      </trkpt>
      <trkpt lat="32.5887599" lon="35.0593103">
        <ele>144.06495638012643</ele>
        <time>2026-06-10T14:30:30.281Z</time>
      </trkpt>
      <trkpt lat="32.5889265" lon="35.059535">
        <ele>145.01199864631974</ele>
        <time>2026-06-10T14:30:31.281Z</time>
      </trkpt>
      <trkpt lat="32.5891629" lon="35.0596052">
        <ele>143.99470126519412</ele>
        <time>2026-06-10T14:30:32.281Z</time>
      </trkpt>
      <trkpt lat="32.5893857" lon="35.0595363">
        <ele>144.38777862938417</ele>
        <time>2026-06-10T14:30:33.281Z</time>
      </trkpt>
      <trkpt lat="32.5896152" lon="35.0594288">
        <ele>144.71769855328776</ele>
        <time>2026-06-10T14:30:34.281Z</time>
      </trkpt>
      <trkpt lat="32.589836" lon="35.0593721">
        <ele>144.70222888550467</ele>
        <time>2026-06-10T14:30:35.281Z</time>
      </trkpt>
      <trkpt lat="32.5900614" lon="35.0593106">
        <ele>145.2982359895604</ele>
        <time>2026-06-10T14:30:36.281Z</time>
      </trkpt>
      <trkpt lat="32.5902846" lon="35.0592044">
        <ele>145.3595351900929</ele>
        <time>2026-06-10T14:30:37.281Z</time>
      </trkpt>
      <trkpt lat="32.5905239" lon="35.0591985">
        <ele>146.08229589025524</ele>
        <time>2026-06-10T14:30:38.281Z</time>
      </trkpt>
      <trkpt lat="32.5907474" lon="35.0592725">
        <ele>146.3438722690242</ele>
        <time>2026-06-10T14:30:39.281Z</time>
      </trkpt>
      <trkpt lat="32.5909582" lon="35.0594212">
        <ele>147.3477704366634</ele>
        <time>2026-06-10T14:30:40.281Z</time>
      </trkpt>
      <trkpt lat="32.5911179" lon="35.059619">
        <ele>148.19319052162038</ele>
        <time>2026-06-10T14:30:41.281Z</time>
      </trkpt>
      <trkpt lat="32.5912265" lon="35.0598778">
        <ele>149.04353337260196</ele>
        <time>2026-06-10T14:30:42.281Z</time>
      </trkpt>
      <trkpt lat="32.5912968" lon="35.0601319">
        <ele>149.3161231508484</ele>
        <time>2026-06-10T14:30:43.281Z</time>
      </trkpt>
      <trkpt lat="32.5914125" lon="35.0603833">
        <ele>149.7208522421368</ele>
        <time>2026-06-10T14:30:44.281Z</time>
      </trkpt>
      <trkpt lat="32.5916328" lon="35.0605553">
        <ele>150.5607491916657</ele>
        <time>2026-06-10T14:30:45.281Z</time>
      </trkpt>
      <trkpt lat="32.5918502" lon="35.0606571">
        <ele>151.17488568233205</ele>
        <time>2026-06-10T14:30:46.281Z</time>
      </trkpt>
      <trkpt lat="32.5920725" lon="35.0607808">
        <ele>151.8614501953125</ele>
        <time>2026-06-10T14:30:47.281Z</time>
      </trkpt>
      <trkpt lat="32.5919556" lon="35.0610233">
        <ele>151.3387421392212</ele>
        <time>2026-06-10T14:30:48.281Z</time>
      </trkpt>
      <trkpt lat="32.5918999" lon="35.061311">
        <ele>152.21051172824517</ele>
        <time>2026-06-10T14:30:49.281Z</time>
      </trkpt>
      <trkpt lat="32.5918935" lon="35.0615774">
        <ele>154.9958572000138</ele>
        <time>2026-06-10T14:30:50.281Z</time>
      </trkpt>
      <trkpt lat="32.5920246" lon="35.061824">
        <ele>156.63926881750388</ele>
        <time>2026-06-10T14:30:51.281Z</time>
      </trkpt>
      <trkpt lat="32.5921825" lon="35.0620408">
        <ele>157.59167668564228</ele>
        <time>2026-06-10T14:30:52.281Z</time>
      </trkpt>
      <trkpt lat="32.5923784" lon="35.0622361">
        <ele>157.94483898630062</ele>
        <time>2026-06-10T14:30:53.281Z</time>
      </trkpt>
      <trkpt lat="32.5925769" lon="35.062433">
        <ele>158.55783579373278</ele>
        <time>2026-06-10T14:30:54.281Z</time>
      </trkpt>
      <trkpt lat="32.5927696" lon="35.0626035">
        <ele>158.532888318228</ele>
        <time>2026-06-10T14:30:55.281Z</time>
      </trkpt>
      <trkpt lat="32.5929501" lon="35.0627791">
        <ele>158.66173776096736</ele>
        <time>2026-06-10T14:30:56.281Z</time>
      </trkpt>
      <trkpt lat="32.5931196" lon="35.0629991">
        <ele>159.19355465875208</ele>
        <time>2026-06-10T14:30:57.281Z</time>
      </trkpt>
      <trkpt lat="32.5933102" lon="35.0632085">
        <ele>159.44421993319457</ele>
        <time>2026-06-10T14:30:58.281Z</time>
      </trkpt>
      <trkpt lat="32.5934763" lon="35.0634004">
        <ele>159.83971205370523</ele>
        <time>2026-06-10T14:30:59.281Z</time>
      </trkpt>
      <trkpt lat="32.5936666" lon="35.0636104">
        <ele>160.30370946111395</ele>
        <time>2026-06-10T14:31:00.281Z</time>
      </trkpt>
      <trkpt lat="32.5938376" lon="35.0637852">
        <ele>160.64476524156504</ele>
        <time>2026-06-10T14:31:01.281Z</time>
      </trkpt>
      <trkpt lat="32.5940183" lon="35.0639645">
        <ele>160.82145119131064</ele>
        <time>2026-06-10T14:31:02.281Z</time>
      </trkpt>
      <trkpt lat="32.5941912" lon="35.0641502">
        <ele>161.31811883236733</ele>
        <time>2026-06-10T14:31:03.281Z</time>
      </trkpt>
      <trkpt lat="32.5943597" lon="35.0643475">
        <ele>161.02411446470077</ele>
        <time>2026-06-10T14:31:04.281Z</time>
      </trkpt>
      <trkpt lat="32.5945444" lon="35.0645748">
        <ele>161.61169177361</ele>
        <time>2026-06-10T14:31:05.281Z</time>
      </trkpt>
      <trkpt lat="32.5947146" lon="35.0648081">
        <ele>162.16425242391207</ele>
        <time>2026-06-10T14:31:06.281Z</time>
      </trkpt>
      <trkpt lat="32.5948357" lon="35.0650619">
        <ele>162.67269986875118</ele>
        <time>2026-06-10T14:31:07.281Z</time>
      </trkpt>
      <trkpt lat="32.5949656" lon="35.0653247">
        <ele>164.39395259768986</ele>
        <time>2026-06-10T14:31:08.281Z</time>
      </trkpt>
      <trkpt lat="32.5950988" lon="35.0655397">
        <ele>165.31484178678164</ele>
        <time>2026-06-10T14:31:09.281Z</time>
      </trkpt>
      <trkpt lat="32.5952579" lon="35.0657649">
        <ele>165.67665703793665</ele>
        <time>2026-06-10T14:31:10.281Z</time>
      </trkpt>
      <trkpt lat="32.5954182" lon="35.0659682">
        <ele>165.24661911093312</ele>
        <time>2026-06-10T14:31:11.281Z</time>
      </trkpt>
      <trkpt lat="32.5955877" lon="35.0661508">
        <ele>165.03156348758262</ele>
        <time>2026-06-10T14:31:12.281Z</time>
      </trkpt>
      <trkpt lat="32.5957568" lon="35.0663428">
        <ele>164.29576496675145</ele>
        <time>2026-06-10T14:31:13.281Z</time>
      </trkpt>
      <trkpt lat="32.5959259" lon="35.0665513">
        <ele>164.60162958543782</ele>
        <time>2026-06-10T14:31:14.281Z</time>
      </trkpt>
      <trkpt lat="32.596114" lon="35.0667785">
        <ele>164.88008035633044</ele>
        <time>2026-06-10T14:31:15.281Z</time>
      </trkpt>
      <trkpt lat="32.5962797" lon="35.0670081">
        <ele>165.12009811792652</ele>
        <time>2026-06-10T14:31:16.281Z</time>
      </trkpt>
      <trkpt lat="32.5964287" lon="35.0672172">
        <ele>165.15955380773414</ele>
        <time>2026-06-10T14:31:17.281Z</time>
      </trkpt>
      <trkpt lat="32.596573" lon="35.0674241">
        <ele>165.1208350230254</ele>
        <time>2026-06-10T14:31:18.281Z</time>
      </trkpt>
      <trkpt lat="32.5967442" lon="35.0675987">
        <ele>165.19999842321334</ele>
        <time>2026-06-10T14:31:19.281Z</time>
      </trkpt>
      <trkpt lat="32.5968419" lon="35.067856">
        <ele>165.36060882682773</ele>
        <time>2026-06-10T14:31:20.281Z</time>
      </trkpt>
      <trkpt lat="32.5969685" lon="35.068085">
        <ele>165.86521396636536</ele>
        <time>2026-06-10T14:31:21.281Z</time>
      </trkpt>
      <trkpt lat="32.5971129" lon="35.0683176">
        <ele>166.2458588515028</ele>
        <time>2026-06-10T14:31:22.281Z</time>
      </trkpt>
      <trkpt lat="32.5972318" lon="35.0685823">
        <ele>166.8152726103139</ele>
        <time>2026-06-10T14:31:23.281Z</time>
      </trkpt>
      <trkpt lat="32.5973266" lon="35.0688422">
        <ele>167.28995309010674</ele>
        <time>2026-06-10T14:31:24.281Z</time>
      </trkpt>
      <trkpt lat="32.5973868" lon="35.0691306">
        <ele>167.88371157017957</ele>
        <time>2026-06-10T14:31:25.281Z</time>
      </trkpt>
      <trkpt lat="32.5973359" lon="35.0693939">
        <ele>168.8650641701304</ele>
        <time>2026-06-10T14:31:26.281Z</time>
      </trkpt>
      <trkpt lat="32.5972569" lon="35.0696608">
        <ele>169.48927545069645</ele>
        <time>2026-06-10T14:31:27.281Z</time>
      </trkpt>
      <trkpt lat="32.5971715" lon="35.0699078">
        <ele>170.27439968385767</ele>
        <time>2026-06-10T14:31:28.281Z</time>
      </trkpt>
      <trkpt lat="32.5971204" lon="35.0701854">
        <ele>171.16778709342813</ele>
        <time>2026-06-10T14:31:29.281Z</time>
      </trkpt>
      <trkpt lat="32.5970243" lon="35.0704276">
        <ele>171.47925339028382</ele>
        <time>2026-06-10T14:31:30.281Z</time>
      </trkpt>
      <trkpt lat="32.5968789" lon="35.0706536">
        <ele>172.04975573243615</ele>
        <time>2026-06-10T14:31:31.281Z</time>
      </trkpt>
      <trkpt lat="32.5967832" lon="35.070898">
        <ele>172.53211388208211</ele>
        <time>2026-06-10T14:31:32.281Z</time>
      </trkpt>
      <trkpt lat="32.5967537" lon="35.0711732">
        <ele>173.0178477978157</ele>
        <time>2026-06-10T14:31:33.281Z</time>
      </trkpt>
      <trkpt lat="32.5967932" lon="35.0714484">
        <ele>173.65685545867373</ele>
        <time>2026-06-10T14:31:34.281Z</time>
      </trkpt>
      <trkpt lat="32.596856" lon="35.0717198">
        <ele>175.48972140635573</ele>
        <time>2026-06-10T14:31:35.281Z</time>
      </trkpt>
      <trkpt lat="32.5970022" lon="35.0719355">
        <ele>176.98067937503487</ele>
        <time>2026-06-10T14:31:36.281Z</time>
      </trkpt>
      <trkpt lat="32.5971256" lon="35.0721807">
        <ele>177.61201893984037</ele>
        <time>2026-06-10T14:31:37.281Z</time>
      </trkpt>
      <trkpt lat="32.5972167" lon="35.072431">
        <ele>178.9513406034222</ele>
        <time>2026-06-10T14:31:38.281Z</time>
      </trkpt>
      <trkpt lat="32.5971605" lon="35.0726948">
        <ele>180.77648443143158</ele>
        <time>2026-06-10T14:31:39.281Z</time>
      </trkpt>
      <trkpt lat="32.5971695" lon="35.0729806">
        <ele>180.91927211181823</ele>
        <time>2026-06-10T14:31:40.281Z</time>
      </trkpt>
      <trkpt lat="32.5971156" lon="35.0732396">
        <ele>181.20565742561507</ele>
        <time>2026-06-10T14:31:41.281Z</time>
      </trkpt>
      <trkpt lat="32.5971218" lon="35.0735211">
        <ele>181.54911695202367</ele>
        <time>2026-06-10T14:31:42.281Z</time>
      </trkpt>
      <trkpt lat="32.5971923" lon="35.0737931">
        <ele>182.00956343785583</ele>
        <time>2026-06-10T14:31:43.281Z</time>
      </trkpt>
      <trkpt lat="32.5972976" lon="35.0740359">
        <ele>182.0061895905037</ele>
        <time>2026-06-10T14:31:44.281Z</time>
      </trkpt>
      <trkpt lat="32.5973592" lon="35.0743016">
        <ele>183.69359610179947</ele>
        <time>2026-06-10T14:31:45.281Z</time>
      </trkpt>
      <trkpt lat="32.5974756" lon="35.0745444">
        <ele>184.90459828959436</ele>
        <time>2026-06-10T14:31:46.281Z</time>
      </trkpt>
      <trkpt lat="32.5976168" lon="35.0747744">
        <ele>185.32385887713514</ele>
        <time>2026-06-10T14:31:47.281Z</time>
      </trkpt>
      <trkpt lat="32.5978098" lon="35.0749251">
        <ele>185.60539298592553</ele>
        <time>2026-06-10T14:31:48.281Z</time>
      </trkpt>
      <trkpt lat="32.5980109" lon="35.075051">
        <ele>185.88762510514672</ele>
        <time>2026-06-10T14:31:49.281Z</time>
      </trkpt>
      <trkpt lat="32.5982386" lon="35.0751462">
        <ele>186.08248404279425</ele>
        <time>2026-06-10T14:31:50.281Z</time>
      </trkpt>
      <trkpt lat="32.5984674" lon="35.0751705">
        <ele>186.51928568385142</ele>
        <time>2026-06-10T14:31:51.281Z</time>
      </trkpt>
      <trkpt lat="32.5986703" lon="35.0752927">
        <ele>188.2615051940951</ele>
        <time>2026-06-10T14:31:52.281Z</time>
      </trkpt>
      <trkpt lat="32.5989051" lon="35.0753428">
        <ele>189.04512193499218</ele>
        <time>2026-06-10T14:31:53.281Z</time>
      </trkpt>
      <trkpt lat="32.5991332" lon="35.0754045">
        <ele>189.59721593897203</ele>
        <time>2026-06-10T14:31:54.281Z</time>
      </trkpt>
      <trkpt lat="32.59936" lon="35.0754447">
        <ele>190.2398455963424</ele>
        <time>2026-06-10T14:31:55.281Z</time>
      </trkpt>
      <trkpt lat="32.5995575" lon="35.0755858">
        <ele>191.14151813304952</ele>
        <time>2026-06-10T14:31:56.281Z</time>
      </trkpt>
      <trkpt lat="32.5997686" lon="35.0757206">
        <ele>192.47149392237623</ele>
        <time>2026-06-10T14:31:57.281Z</time>
      </trkpt>
      <trkpt lat="32.6001469" lon="35.076032">
        <ele>193.92140729641963</ele>
        <time>2026-06-10T14:31:58.281Z</time>
      </trkpt>
      <trkpt lat="32.6003302" lon="35.0762211">
        <ele>194.02640120047377</ele>
        <time>2026-06-10T14:31:59.281Z</time>
      </trkpt>
      <trkpt lat="32.6005066" lon="35.0764132">
        <ele>194.46220775135512</ele>
        <time>2026-06-10T14:32:00.281Z</time>
      </trkpt>
      <trkpt lat="32.6006297" lon="35.0766432">
        <ele>195.70258531369484</ele>
        <time>2026-06-10T14:32:01.281Z</time>
      </trkpt>
      <trkpt lat="32.6007101" lon="35.0768979">
        <ele>196.48039027036276</ele>
        <time>2026-06-10T14:32:02.281Z</time>
      </trkpt>
      <trkpt lat="32.6007962" lon="35.0771593">
        <ele>198.11525128396383</ele>
        <time>2026-06-10T14:32:03.281Z</time>
      </trkpt>
      <trkpt lat="32.6009032" lon="35.0774009">
        <ele>198.12314087117156</ele>
        <time>2026-06-10T14:32:04.281Z</time>
      </trkpt>
      <trkpt lat="32.6009083" lon="35.0776676">
        <ele>199.27928054750484</ele>
        <time>2026-06-10T14:32:05.281Z</time>
      </trkpt>
      <trkpt lat="32.6007" lon="35.0777757">
        <ele>202.248291013686</ele>
        <time>2026-06-10T14:32:06.281Z</time>
      </trkpt>
      <trkpt lat="32.6005953" lon="35.0780182">
        <ele>203.9184528873098</ele>
        <time>2026-06-10T14:32:07.281Z</time>
      </trkpt>
      <trkpt lat="32.6004524" lon="35.0782435">
        <ele>205.44852942196522</ele>
        <time>2026-06-10T14:32:08.281Z</time>
      </trkpt>
      <trkpt lat="32.6003559" lon="35.0785047">
        <ele>206.086287796781</ele>
        <time>2026-06-10T14:32:09.281Z</time>
      </trkpt>
      <trkpt lat="32.600275" lon="35.0787788">
        <ele>206.5519091771597</ele>
        <time>2026-06-10T14:32:10.281Z</time>
      </trkpt>
      <trkpt lat="32.6002205" lon="35.0790509">
        <ele>206.90928666216485</ele>
        <time>2026-06-10T14:32:11.281Z</time>
      </trkpt>
      <trkpt lat="32.6001412" lon="35.0793054">
        <ele>206.9012971495083</ele>
        <time>2026-06-10T14:32:12.281Z</time>
      </trkpt>
      <trkpt lat="32.6003668" lon="35.0793858">
        <ele>203.96120907659974</ele>
        <time>2026-06-10T14:32:13.281Z</time>
      </trkpt>
      <trkpt lat="32.6005582" lon="35.0795597">
        <ele>206.82065548024104</ele>
        <time>2026-06-10T14:32:14.281Z</time>
      </trkpt>
      <trkpt lat="32.6008017" lon="35.0795756">
        <ele>207.97200337061886</ele>
        <time>2026-06-10T14:32:15.281Z</time>
      </trkpt>
      <trkpt lat="32.6010312" lon="35.0796346">
        <ele>209.37144991981685</ele>
        <time>2026-06-10T14:32:16.281Z</time>
      </trkpt>
      <trkpt lat="32.6014855" lon="35.079781">
        <ele>209.894055506423</ele>
        <time>2026-06-10T14:32:17.281Z</time>
      </trkpt>
      <trkpt lat="32.6016785" lon="35.0799262">
        <ele>210.5137250161296</ele>
        <time>2026-06-10T14:32:18.281Z</time>
      </trkpt>
      <trkpt lat="32.6018976" lon="35.0800095">
        <ele>210.22253208404607</ele>
        <time>2026-06-10T14:32:19.281Z</time>
      </trkpt>
      <trkpt lat="32.6021327" lon="35.0800251">
        <ele>209.5523159455276</ele>
        <time>2026-06-10T14:32:20.281Z</time>
      </trkpt>
      <trkpt lat="32.6023578" lon="35.0801701">
        <ele>209.31622242643826</ele>
        <time>2026-06-10T14:32:21.281Z</time>
      </trkpt>
      <trkpt lat="32.6024928" lon="35.0804115">
        <ele>209.7992245668214</ele>
        <time>2026-06-10T14:32:22.281Z</time>
      </trkpt>
      <trkpt lat="32.6025608" lon="35.0806682">
        <ele>210.39154800843184</ele>
        <time>2026-06-10T14:32:23.281Z</time>
      </trkpt>
      <trkpt lat="32.6026086" lon="35.0809467">
        <ele>211.79080318154064</ele>
        <time>2026-06-10T14:32:24.281Z</time>
      </trkpt>
      <trkpt lat="32.6026006" lon="35.0812273">
        <ele>213.787079875594</ele>
        <time>2026-06-10T14:32:25.281Z</time>
      </trkpt>
      <trkpt lat="32.6027138" lon="35.0814865">
        <ele>214.65509316552198</ele>
        <time>2026-06-10T14:32:26.281Z</time>
      </trkpt>
      <trkpt lat="32.6028709" lon="35.0816987">
        <ele>214.9633745125481</ele>
        <time>2026-06-10T14:32:27.281Z</time>
      </trkpt>
      <trkpt lat="32.603056" lon="35.0818651">
        <ele>214.81529739276274</ele>
        <time>2026-06-10T14:32:28.281Z</time>
      </trkpt>
      <trkpt lat="32.6031097" lon="35.0821336">
        <ele>215.61117010140552</ele>
        <time>2026-06-10T14:32:29.281Z</time>
      </trkpt>
      <trkpt lat="32.6030859" lon="35.0824251">
        <ele>217.0358674702974</ele>
        <time>2026-06-10T14:32:30.281Z</time>
      </trkpt>
      <trkpt lat="32.6031971" lon="35.0827067">
        <ele>217.94788759953627</ele>
        <time>2026-06-10T14:32:31.281Z</time>
      </trkpt>
      <trkpt lat="32.6032875" lon="35.0830024">
        <ele>218.77650238125557</ele>
        <time>2026-06-10T14:32:32.281Z</time>
      </trkpt>
      <trkpt lat="32.6033212" lon="35.0833137">
        <ele>220.03707667397688</ele>
        <time>2026-06-10T14:32:33.281Z</time>
      </trkpt>
      <trkpt lat="32.6033246" lon="35.0835827">
        <ele>220.73837146028387</ele>
        <time>2026-06-10T14:32:34.281Z</time>
      </trkpt>
      <trkpt lat="32.6033035" lon="35.0838894">
        <ele>221.22547157841987</ele>
        <time>2026-06-10T14:32:35.281Z</time>
      </trkpt>
      <trkpt lat="32.6032443" lon="35.0841524">
        <ele>222.353157720538</ele>
        <time>2026-06-10T14:32:36.281Z</time>
      </trkpt>
    </trkseg>
  </trk>
</gpx>